<?xml version="1.0" encoding="UTF-8" standalone="no" ?>
<gpx xmlns="http://www.topografix.com/GPX/1/1" xmlns:xsi="http://www.w3.org/2001/XMLSchema-instance" xsi:schemaLocation="http://www.topografix.com/GPX/1/1 http://www.topografix.com/GPX/1/1/gpx.xsd" version="1.1" creator="VisuGPX - https://www.visugpx.com">
  <metadata>
    <name>mtp_alco_murviel_bel-air_grabels</name>
  </metadata>
  <trk>
    <name><![CDATA[mtp_alco_murviel_bel-air_grabels_1]]></name>
    <extensions>
      <line xmlns="http://www.topografix.com/GPX/gpx_style/0/2">
        <color>0000FF</color>
        <width>4</width>
      </line>
    </extensions>
    <trkseg>
      <trkpt lat="43.62271" lon="3.83524">
        <ele>76.1</ele>
        <time>2021-11-13T12:07:07Z</time>
      </trkpt>
      <trkpt lat="43.62225" lon="3.83503">
        <ele>76</ele>
        <time>2021-11-13T12:07:17Z</time>
      </trkpt>
      <trkpt lat="43.62194" lon="3.83467">
        <ele>75.8</ele>
        <time>2021-11-13T12:07:27Z</time>
      </trkpt>
      <trkpt lat="43.62156" lon="3.83436">
        <ele>75</ele>
        <time>2021-11-13T12:07:37Z</time>
      </trkpt>
      <trkpt lat="43.62117" lon="3.83403">
        <ele>75</ele>
        <time>2021-11-13T12:07:47Z</time>
      </trkpt>
      <trkpt lat="43.62082" lon="3.83362">
        <ele>75</ele>
        <time>2021-11-13T12:07:57Z</time>
      </trkpt>
      <trkpt lat="43.62051" lon="3.83325">
        <ele>74.1</ele>
        <time>2021-11-13T12:08:07Z</time>
      </trkpt>
      <trkpt lat="43.62023" lon="3.83291">
        <ele>74.1</ele>
        <time>2021-11-13T12:08:17Z</time>
      </trkpt>
      <trkpt lat="43.62003" lon="3.83251">
        <ele>74.1</ele>
        <time>2021-11-13T12:08:27Z</time>
      </trkpt>
      <trkpt lat="43.61976" lon="3.83221">
        <ele>73.3</ele>
        <time>2021-11-13T12:08:37Z</time>
      </trkpt>
      <trkpt lat="43.61951" lon="3.83181">
        <ele>73.4</ele>
        <time>2021-11-13T12:08:47Z</time>
      </trkpt>
      <trkpt lat="43.61922" lon="3.83136">
        <ele>71.2</ele>
        <time>2021-11-13T12:08:57Z</time>
      </trkpt>
      <trkpt lat="43.61892" lon="3.83079">
        <ele>69.9</ele>
        <time>2021-11-13T12:09:07Z</time>
      </trkpt>
      <trkpt lat="43.61863" lon="3.83023">
        <ele>69.1</ele>
        <time>2021-11-13T12:09:17Z</time>
      </trkpt>
      <trkpt lat="43.61839" lon="3.82965">
        <ele>67.9</ele>
        <time>2021-11-13T12:09:27Z</time>
      </trkpt>
      <trkpt lat="43.61818" lon="3.82903">
        <ele>66.7</ele>
        <time>2021-11-13T12:09:37Z</time>
      </trkpt>
      <trkpt lat="43.61799" lon="3.82841">
        <ele>65.2</ele>
        <time>2021-11-13T12:09:47Z</time>
      </trkpt>
      <trkpt lat="43.61779" lon="3.8278">
        <ele>64.1</ele>
        <time>2021-11-13T12:09:57Z</time>
      </trkpt>
      <trkpt lat="43.6176" lon="3.8272">
        <ele>62.6</ele>
        <time>2021-11-13T12:10:07Z</time>
      </trkpt>
      <trkpt lat="43.61744" lon="3.82666">
        <ele>62.2</ele>
        <time>2021-11-13T12:10:17Z</time>
      </trkpt>
      <trkpt lat="43.61725" lon="3.82611">
        <ele>61.9</ele>
        <time>2021-11-13T12:10:27Z</time>
      </trkpt>
      <trkpt lat="43.61692" lon="3.82578">
        <ele>61.9</ele>
        <time>2021-11-13T12:10:37Z</time>
      </trkpt>
      <trkpt lat="43.6168" lon="3.8253">
        <ele>60.5</ele>
        <time>2021-11-13T12:10:47Z</time>
      </trkpt>
      <trkpt lat="43.61663" lon="3.82462">
        <ele>57.7</ele>
        <time>2021-11-13T12:10:57Z</time>
      </trkpt>
      <trkpt lat="43.61644" lon="3.82395">
        <ele>55.2</ele>
        <time>2021-11-13T12:11:07Z</time>
      </trkpt>
      <trkpt lat="43.61622" lon="3.82331">
        <ele>52.3</ele>
        <time>2021-11-13T12:11:17Z</time>
      </trkpt>
      <trkpt lat="43.61599" lon="3.82256">
        <ele>48.9</ele>
        <time>2021-11-13T12:11:27Z</time>
      </trkpt>
      <trkpt lat="43.61577" lon="3.8219">
        <ele>46.5</ele>
        <time>2021-11-13T12:11:37Z</time>
      </trkpt>
      <trkpt lat="43.61557" lon="3.82154">
        <ele>42.7</ele>
        <time>2021-11-13T12:11:47Z</time>
      </trkpt>
      <trkpt lat="43.61546" lon="3.82122">
        <ele>42</ele>
        <time>2021-11-13T12:11:57Z</time>
      </trkpt>
      <trkpt lat="43.61552" lon="3.82065">
        <ele>42.8</ele>
        <time>2021-11-13T12:12:07Z</time>
      </trkpt>
      <trkpt lat="43.61552" lon="3.82028">
        <ele>40</ele>
        <time>2021-11-13T12:12:17Z</time>
      </trkpt>
      <trkpt lat="43.61566" lon="3.81982">
        <ele>39.4</ele>
        <time>2021-11-13T12:12:27Z</time>
      </trkpt>
      <trkpt lat="43.61592" lon="3.8196">
        <ele>39.7</ele>
        <time>2021-11-13T12:12:37Z</time>
      </trkpt>
      <trkpt lat="43.6158" lon="3.81912">
        <ele>38.9</ele>
        <time>2021-11-13T12:12:47Z</time>
      </trkpt>
      <trkpt lat="43.61565" lon="3.81854">
        <ele>37.2</ele>
        <time>2021-11-13T12:12:57Z</time>
      </trkpt>
      <trkpt lat="43.6155" lon="3.818">
        <ele>36.7</ele>
        <time>2021-11-13T12:13:07Z</time>
      </trkpt>
      <trkpt lat="43.61536" lon="3.81749">
        <ele>36.7</ele>
        <time>2021-11-13T12:13:17Z</time>
      </trkpt>
      <trkpt lat="43.61524" lon="3.81697">
        <ele>32.9</ele>
        <time>2021-11-13T12:13:27Z</time>
      </trkpt>
      <trkpt lat="43.61508" lon="3.81642">
        <ele>37.4</ele>
        <time>2021-11-13T12:13:37Z</time>
      </trkpt>
      <trkpt lat="43.61495" lon="3.81586">
        <ele>38</ele>
        <time>2021-11-13T12:13:47Z</time>
      </trkpt>
      <trkpt lat="43.61497" lon="3.81533">
        <ele>39.9</ele>
        <time>2021-11-13T12:13:57Z</time>
      </trkpt>
      <trkpt lat="43.61513" lon="3.81494">
        <ele>42.4</ele>
        <time>2021-11-13T12:14:07Z</time>
      </trkpt>
      <trkpt lat="43.61539" lon="3.81467">
        <ele>44.4</ele>
        <time>2021-11-13T12:14:17Z</time>
      </trkpt>
      <trkpt lat="43.61565" lon="3.8145">
        <ele>45.5</ele>
        <time>2021-11-13T12:14:27Z</time>
      </trkpt>
      <trkpt lat="43.61592" lon="3.81438">
        <ele>46.3</ele>
        <time>2021-11-13T12:14:37Z</time>
      </trkpt>
      <trkpt lat="43.61617" lon="3.81426">
        <ele>47.6</ele>
        <time>2021-11-13T12:14:47Z</time>
      </trkpt>
      <trkpt lat="43.61634" lon="3.81403">
        <ele>49.3</ele>
        <time>2021-11-13T12:14:57Z</time>
      </trkpt>
      <trkpt lat="43.61648" lon="3.81374">
        <ele>50.9</ele>
        <time>2021-11-13T12:15:07Z</time>
      </trkpt>
      <trkpt lat="43.61662" lon="3.81341">
        <ele>51.8</ele>
        <time>2021-11-13T12:15:17Z</time>
      </trkpt>
      <trkpt lat="43.61675" lon="3.81307">
        <ele>53.3</ele>
        <time>2021-11-13T12:15:27Z</time>
      </trkpt>
      <trkpt lat="43.61689" lon="3.81275">
        <ele>54.1</ele>
        <time>2021-11-13T12:15:37Z</time>
      </trkpt>
      <trkpt lat="43.61702" lon="3.81243">
        <ele>55.5</ele>
        <time>2021-11-13T12:15:47Z</time>
      </trkpt>
      <trkpt lat="43.61717" lon="3.81213">
        <ele>56.3</ele>
        <time>2021-11-13T12:15:57Z</time>
      </trkpt>
      <trkpt lat="43.61731" lon="3.81178">
        <ele>58</ele>
        <time>2021-11-13T12:16:07Z</time>
      </trkpt>
      <trkpt lat="43.61744" lon="3.81145">
        <ele>59</ele>
        <time>2021-11-13T12:16:17Z</time>
      </trkpt>
      <trkpt lat="43.61759" lon="3.81113">
        <ele>60.3</ele>
        <time>2021-11-13T12:16:27Z</time>
      </trkpt>
      <trkpt lat="43.61767" lon="3.81076">
        <ele>61.9</ele>
        <time>2021-11-13T12:16:37Z</time>
      </trkpt>
      <trkpt lat="43.61767" lon="3.81037">
        <ele>62.9</ele>
        <time>2021-11-13T12:16:47Z</time>
      </trkpt>
      <trkpt lat="43.61764" lon="3.80999">
        <ele>64</ele>
        <time>2021-11-13T12:16:57Z</time>
      </trkpt>
      <trkpt lat="43.6176" lon="3.8096">
        <ele>64.4</ele>
        <time>2021-11-13T12:17:07Z</time>
      </trkpt>
      <trkpt lat="43.61758" lon="3.80918">
        <ele>65.3</ele>
        <time>2021-11-13T12:17:17Z</time>
      </trkpt>
      <trkpt lat="43.61754" lon="3.80876">
        <ele>65.6</ele>
        <time>2021-11-13T12:17:27Z</time>
      </trkpt>
      <trkpt lat="43.61752" lon="3.80836">
        <ele>67</ele>
        <time>2021-11-13T12:17:37Z</time>
      </trkpt>
      <trkpt lat="43.61757" lon="3.80797">
        <ele>68.1</ele>
        <time>2021-11-13T12:17:47Z</time>
      </trkpt>
      <trkpt lat="43.61773" lon="3.80757">
        <ele>69</ele>
        <time>2021-11-13T12:17:57Z</time>
      </trkpt>
      <trkpt lat="43.61798" lon="3.8072">
        <ele>68</ele>
        <time>2021-11-13T12:18:07Z</time>
      </trkpt>
      <trkpt lat="43.61813" lon="3.80693">
        <ele>67.5</ele>
        <time>2021-11-13T12:18:17Z</time>
      </trkpt>
      <trkpt lat="43.61794" lon="3.80646">
        <ele>67.6</ele>
        <time>2021-11-13T12:18:27Z</time>
      </trkpt>
      <trkpt lat="43.61792" lon="3.80577">
        <ele>66.7</ele>
        <time>2021-11-13T12:18:37Z</time>
      </trkpt>
      <trkpt lat="43.61836" lon="3.80534">
        <ele>58.4</ele>
        <time>2021-11-13T12:18:47Z</time>
      </trkpt>
      <trkpt lat="43.61895" lon="3.80526">
        <ele>52.8</ele>
        <time>2021-11-13T12:18:57Z</time>
      </trkpt>
      <trkpt lat="43.61934" lon="3.8049">
        <ele>49.3</ele>
        <time>2021-11-13T12:19:07Z</time>
      </trkpt>
      <trkpt lat="43.61954" lon="3.80437">
        <ele>46.3</ele>
        <time>2021-11-13T12:19:17Z</time>
      </trkpt>
      <trkpt lat="43.61966" lon="3.8039">
        <ele>44.4</ele>
        <time>2021-11-13T12:19:27Z</time>
      </trkpt>
      <trkpt lat="43.61981" lon="3.80343">
        <ele>47.7</ele>
        <time>2021-11-13T12:19:37Z</time>
      </trkpt>
      <trkpt lat="43.61992" lon="3.80304">
        <ele>50.4</ele>
        <time>2021-11-13T12:19:47Z</time>
      </trkpt>
      <trkpt lat="43.61996" lon="3.80262">
        <ele>50.9</ele>
        <time>2021-11-13T12:19:57Z</time>
      </trkpt>
      <trkpt lat="43.6201" lon="3.80226">
        <ele>52.8</ele>
        <time>2021-11-13T12:20:07Z</time>
      </trkpt>
      <trkpt lat="43.62027" lon="3.80193">
        <ele>53.1</ele>
        <time>2021-11-13T12:20:17Z</time>
      </trkpt>
      <trkpt lat="43.62046" lon="3.80157">
        <ele>54.3</ele>
        <time>2021-11-13T12:20:27Z</time>
      </trkpt>
      <trkpt lat="43.62063" lon="3.8012">
        <ele>55.2</ele>
        <time>2021-11-13T12:20:37Z</time>
      </trkpt>
      <trkpt lat="43.62077" lon="3.8008">
        <ele>56</ele>
        <time>2021-11-13T12:20:47Z</time>
      </trkpt>
      <trkpt lat="43.62091" lon="3.80038">
        <ele>56.6</ele>
        <time>2021-11-13T12:20:57Z</time>
      </trkpt>
      <trkpt lat="43.62103" lon="3.79996">
        <ele>57.1</ele>
        <time>2021-11-13T12:21:07Z</time>
      </trkpt>
      <trkpt lat="43.62102" lon="3.79961">
        <ele>58</ele>
        <time>2021-11-13T12:21:17Z</time>
      </trkpt>
      <trkpt lat="43.62125" lon="3.79961">
        <ele>58</ele>
        <time>2021-11-13T12:21:27Z</time>
      </trkpt>
      <trkpt lat="43.6214" lon="3.79926">
        <ele>58</ele>
        <time>2021-11-13T12:21:37Z</time>
      </trkpt>
      <trkpt lat="43.62152" lon="3.79887">
        <ele>59.1</ele>
        <time>2021-11-13T12:21:47Z</time>
      </trkpt>
      <trkpt lat="43.62163" lon="3.79843">
        <ele>60.1</ele>
        <time>2021-11-13T12:21:57Z</time>
      </trkpt>
      <trkpt lat="43.62171" lon="3.79802">
        <ele>61.3</ele>
        <time>2021-11-13T12:22:07Z</time>
      </trkpt>
      <trkpt lat="43.62177" lon="3.79767">
        <ele>63.1</ele>
        <time>2021-11-13T12:22:17Z</time>
      </trkpt>
      <trkpt lat="43.62181" lon="3.79728">
        <ele>64.4</ele>
        <time>2021-11-13T12:22:27Z</time>
      </trkpt>
      <trkpt lat="43.62195" lon="3.79715">
        <ele>65.6</ele>
        <time>2021-11-13T12:22:37Z</time>
      </trkpt>
      <trkpt lat="43.62185" lon="3.79706">
        <ele>65.6</ele>
        <time>2021-11-13T12:22:47Z</time>
      </trkpt>
      <trkpt lat="43.62186" lon="3.79667">
        <ele>67.4</ele>
        <time>2021-11-13T12:22:57Z</time>
      </trkpt>
      <trkpt lat="43.62188" lon="3.79633">
        <ele>69.1</ele>
        <time>2021-11-13T12:23:07Z</time>
      </trkpt>
      <trkpt lat="43.6219" lon="3.796">
        <ele>70.7</ele>
        <time>2021-11-13T12:23:17Z</time>
      </trkpt>
      <trkpt lat="43.62183" lon="3.79562">
        <ele>71.5</ele>
        <time>2021-11-13T12:23:27Z</time>
      </trkpt>
      <trkpt lat="43.62174" lon="3.79523">
        <ele>71.6</ele>
        <time>2021-11-13T12:23:37Z</time>
      </trkpt>
      <trkpt lat="43.62156" lon="3.79492">
        <ele>70.4</ele>
        <time>2021-11-13T12:23:47Z</time>
      </trkpt>
      <trkpt lat="43.62112" lon="3.79479">
        <ele>65.4</ele>
        <time>2021-11-13T12:23:57Z</time>
      </trkpt>
      <trkpt lat="43.62085" lon="3.79458">
        <ele>62.7</ele>
        <time>2021-11-13T12:24:07Z</time>
      </trkpt>
      <trkpt lat="43.62095" lon="3.79422">
        <ele>63.7</ele>
        <time>2021-11-13T12:24:17Z</time>
      </trkpt>
      <trkpt lat="43.62108" lon="3.79391">
        <ele>64.8</ele>
        <time>2021-11-13T12:24:27Z</time>
      </trkpt>
      <trkpt lat="43.62093" lon="3.79421">
        <ele>63.4</ele>
        <time>2021-11-13T12:27:07Z</time>
      </trkpt>
      <trkpt lat="43.62077" lon="3.79475">
        <ele>62.6</ele>
        <time>2021-11-13T12:27:27Z</time>
      </trkpt>
      <trkpt lat="43.62059" lon="3.79526">
        <ele>61.3</ele>
        <time>2021-11-13T12:27:37Z</time>
      </trkpt>
      <trkpt lat="43.62038" lon="3.79582">
        <ele>59.8</ele>
        <time>2021-11-13T12:27:47Z</time>
      </trkpt>
      <trkpt lat="43.62007" lon="3.79629">
        <ele>57</ele>
        <time>2021-11-13T12:27:57Z</time>
      </trkpt>
      <trkpt lat="43.61985" lon="3.79669">
        <ele>54.9</ele>
        <time>2021-11-13T12:28:07Z</time>
      </trkpt>
      <trkpt lat="43.62008" lon="3.79634">
        <ele>57</ele>
        <time>2021-11-13T12:28:17Z</time>
      </trkpt>
      <trkpt lat="43.62027" lon="3.79607">
        <ele>58.9</ele>
        <time>2021-11-13T12:28:37Z</time>
      </trkpt>
      <trkpt lat="43.62043" lon="3.79578">
        <ele>60.2</ele>
        <time>2021-11-13T12:28:47Z</time>
      </trkpt>
      <trkpt lat="43.62056" lon="3.79544">
        <ele>61</ele>
        <time>2021-11-13T12:28:57Z</time>
      </trkpt>
      <trkpt lat="43.62067" lon="3.7951">
        <ele>62.1</ele>
        <time>2021-11-13T12:29:07Z</time>
      </trkpt>
      <trkpt lat="43.62083" lon="3.79481">
        <ele>63.3</ele>
        <time>2021-11-13T12:29:17Z</time>
      </trkpt>
      <trkpt lat="43.62107" lon="3.79482">
        <ele>65.1</ele>
        <time>2021-11-13T12:29:27Z</time>
      </trkpt>
      <trkpt lat="43.62126" lon="3.79486">
        <ele>67.4</ele>
        <time>2021-11-13T12:29:37Z</time>
      </trkpt>
      <trkpt lat="43.62144" lon="3.79491">
        <ele>69.4</ele>
        <time>2021-11-13T12:29:47Z</time>
      </trkpt>
      <trkpt lat="43.62162" lon="3.79501">
        <ele>70.7</ele>
        <time>2021-11-13T12:29:57Z</time>
      </trkpt>
      <trkpt lat="43.62173" lon="3.79534">
        <ele>71.3</ele>
        <time>2021-11-13T12:30:07Z</time>
      </trkpt>
      <trkpt lat="43.62184" lon="3.79576">
        <ele>71</ele>
        <time>2021-11-13T12:30:17Z</time>
      </trkpt>
      <trkpt lat="43.62186" lon="3.79624">
        <ele>69.6</ele>
        <time>2021-11-13T12:30:27Z</time>
      </trkpt>
      <trkpt lat="43.62184" lon="3.7967">
        <ele>67.1</ele>
        <time>2021-11-13T12:30:37Z</time>
      </trkpt>
      <trkpt lat="43.62186" lon="3.79712">
        <ele>65.3</ele>
        <time>2021-11-13T12:30:47Z</time>
      </trkpt>
      <trkpt lat="43.62178" lon="3.79759">
        <ele>63.5</ele>
        <time>2021-11-13T12:30:57Z</time>
      </trkpt>
      <trkpt lat="43.62166" lon="3.79828">
        <ele>60.2</ele>
        <time>2021-11-13T12:31:07Z</time>
      </trkpt>
      <trkpt lat="43.62149" lon="3.799">
        <ele>58.6</ele>
        <time>2021-11-13T12:31:17Z</time>
      </trkpt>
      <trkpt lat="43.62182" lon="3.79914">
        <ele>57.5</ele>
        <time>2021-11-13T12:31:27Z</time>
      </trkpt>
      <trkpt lat="43.62227" lon="3.79949">
        <ele>56.1</ele>
        <time>2021-11-13T12:31:37Z</time>
      </trkpt>
      <trkpt lat="43.62269" lon="3.79944">
        <ele>57.7</ele>
        <time>2021-11-13T12:31:47Z</time>
      </trkpt>
      <trkpt lat="43.62286" lon="3.7993">
        <ele>60.8</ele>
        <time>2021-11-13T12:31:57Z</time>
      </trkpt>
      <trkpt lat="43.62298" lon="3.79918">
        <ele>63.3</ele>
        <time>2021-11-13T12:32:07Z</time>
      </trkpt>
      <trkpt lat="43.6231" lon="3.79907">
        <ele>65.8</ele>
        <time>2021-11-13T12:32:17Z</time>
      </trkpt>
      <trkpt lat="43.6232" lon="3.79897">
        <ele>68</ele>
        <time>2021-11-13T12:32:27Z</time>
      </trkpt>
      <trkpt lat="43.62329" lon="3.79886">
        <ele>69.9</ele>
        <time>2021-11-13T12:32:37Z</time>
      </trkpt>
      <trkpt lat="43.62338" lon="3.79878">
        <ele>71.4</ele>
        <time>2021-11-13T12:32:47Z</time>
      </trkpt>
      <trkpt lat="43.62346" lon="3.79866">
        <ele>73.4</ele>
        <time>2021-11-13T12:32:57Z</time>
      </trkpt>
      <trkpt lat="43.62351" lon="3.79852">
        <ele>75.2</ele>
        <time>2021-11-13T12:33:07Z</time>
      </trkpt>
      <trkpt lat="43.62353" lon="3.79838">
        <ele>76.5</ele>
        <time>2021-11-13T12:33:17Z</time>
      </trkpt>
      <trkpt lat="43.62363" lon="3.79837">
        <ele>78</ele>
        <time>2021-11-13T12:33:27Z</time>
      </trkpt>
      <trkpt lat="43.62374" lon="3.79836">
        <ele>79.6</ele>
        <time>2021-11-13T12:33:37Z</time>
      </trkpt>
      <trkpt lat="43.62386" lon="3.79837">
        <ele>81.2</ele>
        <time>2021-11-13T12:33:47Z</time>
      </trkpt>
      <trkpt lat="43.62402" lon="3.7984">
        <ele>82.8</ele>
        <time>2021-11-13T12:33:57Z</time>
      </trkpt>
      <trkpt lat="43.62421" lon="3.79845">
        <ele>83.9</ele>
        <time>2021-11-13T12:34:07Z</time>
      </trkpt>
      <trkpt lat="43.62442" lon="3.79849">
        <ele>85.4</ele>
        <time>2021-11-13T12:34:17Z</time>
      </trkpt>
      <trkpt lat="43.6246" lon="3.79846">
        <ele>86.8</ele>
        <time>2021-11-13T12:34:27Z</time>
      </trkpt>
      <trkpt lat="43.62477" lon="3.79841">
        <ele>88.2</ele>
        <time>2021-11-13T12:34:37Z</time>
      </trkpt>
      <trkpt lat="43.62492" lon="3.79836">
        <ele>88.7</ele>
        <time>2021-11-13T12:34:47Z</time>
      </trkpt>
      <trkpt lat="43.62513" lon="3.79831">
        <ele>88.5</ele>
        <time>2021-11-13T12:34:57Z</time>
      </trkpt>
      <trkpt lat="43.62539" lon="3.79825">
        <ele>88.4</ele>
        <time>2021-11-13T12:35:07Z</time>
      </trkpt>
      <trkpt lat="43.62558" lon="3.79817">
        <ele>89.3</ele>
        <time>2021-11-13T12:35:17Z</time>
      </trkpt>
      <trkpt lat="43.62585" lon="3.79809">
        <ele>89</ele>
        <time>2021-11-13T12:35:27Z</time>
      </trkpt>
      <trkpt lat="43.62606" lon="3.79793">
        <ele>91.2</ele>
        <time>2021-11-13T12:35:37Z</time>
      </trkpt>
      <trkpt lat="43.62624" lon="3.79778">
        <ele>93.5</ele>
        <time>2021-11-13T12:35:47Z</time>
      </trkpt>
      <trkpt lat="43.62643" lon="3.79768">
        <ele>94</ele>
        <time>2021-11-13T12:35:57Z</time>
      </trkpt>
      <trkpt lat="43.62658" lon="3.79749">
        <ele>96.1</ele>
        <time>2021-11-13T12:36:07Z</time>
      </trkpt>
      <trkpt lat="43.62673" lon="3.79735">
        <ele>96.7</ele>
        <time>2021-11-13T12:36:17Z</time>
      </trkpt>
      <trkpt lat="43.62687" lon="3.79721">
        <ele>97.4</ele>
        <time>2021-11-13T12:36:27Z</time>
      </trkpt>
      <trkpt lat="43.62703" lon="3.79707">
        <ele>98.3</ele>
        <time>2021-11-13T12:36:37Z</time>
      </trkpt>
      <trkpt lat="43.62722" lon="3.79694">
        <ele>99.1</ele>
        <time>2021-11-13T12:36:47Z</time>
      </trkpt>
      <trkpt lat="43.62742" lon="3.79686">
        <ele>99.5</ele>
        <time>2021-11-13T12:36:57Z</time>
      </trkpt>
      <trkpt lat="43.62764" lon="3.79676">
        <ele>100.8</ele>
        <time>2021-11-13T12:37:07Z</time>
      </trkpt>
      <trkpt lat="43.62779" lon="3.79654">
        <ele>102.5</ele>
        <time>2021-11-13T12:37:17Z</time>
      </trkpt>
      <trkpt lat="43.62783" lon="3.79628">
        <ele>103.4</ele>
        <time>2021-11-13T12:37:27Z</time>
      </trkpt>
      <trkpt lat="43.62789" lon="3.796">
        <ele>104.2</ele>
        <time>2021-11-13T12:37:37Z</time>
      </trkpt>
      <trkpt lat="43.62793" lon="3.79562">
        <ele>104.5</ele>
        <time>2021-11-13T12:37:47Z</time>
      </trkpt>
      <trkpt lat="43.62796" lon="3.79521">
        <ele>103.7</ele>
        <time>2021-11-13T12:37:57Z</time>
      </trkpt>
      <trkpt lat="43.62808" lon="3.79493">
        <ele>102.9</ele>
        <time>2021-11-13T12:38:07Z</time>
      </trkpt>
      <trkpt lat="43.6283" lon="3.79468">
        <ele>103.6</ele>
        <time>2021-11-13T12:38:17Z</time>
      </trkpt>
      <trkpt lat="43.62853" lon="3.79448">
        <ele>104.5</ele>
        <time>2021-11-13T12:38:27Z</time>
      </trkpt>
      <trkpt lat="43.62876" lon="3.79425">
        <ele>105.5</ele>
        <time>2021-11-13T12:38:37Z</time>
      </trkpt>
      <trkpt lat="43.62902" lon="3.79397">
        <ele>105.5</ele>
        <time>2021-11-13T12:38:47Z</time>
      </trkpt>
      <trkpt lat="43.6293" lon="3.79371">
        <ele>105.7</ele>
        <time>2021-11-13T12:38:57Z</time>
      </trkpt>
      <trkpt lat="43.62955" lon="3.79348">
        <ele>105.3</ele>
        <time>2021-11-13T12:39:07Z</time>
      </trkpt>
      <trkpt lat="43.62982" lon="3.7933">
        <ele>105.8</ele>
        <time>2021-11-13T12:39:17Z</time>
      </trkpt>
      <trkpt lat="43.6301" lon="3.79317">
        <ele>107.3</ele>
        <time>2021-11-13T12:39:27Z</time>
      </trkpt>
      <trkpt lat="43.63036" lon="3.79304">
        <ele>107.8</ele>
        <time>2021-11-13T12:39:37Z</time>
      </trkpt>
      <trkpt lat="43.6306" lon="3.79294">
        <ele>109.7</ele>
        <time>2021-11-13T12:39:47Z</time>
      </trkpt>
      <trkpt lat="43.63084" lon="3.79285">
        <ele>110.3</ele>
        <time>2021-11-13T12:39:57Z</time>
      </trkpt>
      <trkpt lat="43.63107" lon="3.79269">
        <ele>110.6</ele>
        <time>2021-11-13T12:40:07Z</time>
      </trkpt>
      <trkpt lat="43.63124" lon="3.79259">
        <ele>110.8</ele>
        <time>2021-11-13T12:40:17Z</time>
      </trkpt>
      <trkpt lat="43.63151" lon="3.79252">
        <ele>111.1</ele>
        <time>2021-11-13T12:40:27Z</time>
      </trkpt>
      <trkpt lat="43.63182" lon="3.79245">
        <ele>110.9</ele>
        <time>2021-11-13T12:40:37Z</time>
      </trkpt>
      <trkpt lat="43.63218" lon="3.79238">
        <ele>110.5</ele>
        <time>2021-11-13T12:40:47Z</time>
      </trkpt>
      <trkpt lat="43.63253" lon="3.79232">
        <ele>110.5</ele>
        <time>2021-11-13T12:40:57Z</time>
      </trkpt>
      <trkpt lat="43.63287" lon="3.79223">
        <ele>110.3</ele>
        <time>2021-11-13T12:41:07Z</time>
      </trkpt>
      <trkpt lat="43.63308" lon="3.79215">
        <ele>111</ele>
        <time>2021-11-13T12:41:17Z</time>
      </trkpt>
      <trkpt lat="43.63339" lon="3.79219">
        <ele>111.1</ele>
        <time>2021-11-13T12:41:27Z</time>
      </trkpt>
      <trkpt lat="43.63374" lon="3.79225">
        <ele>110.3</ele>
        <time>2021-11-13T12:41:37Z</time>
      </trkpt>
      <trkpt lat="43.63413" lon="3.79226">
        <ele>109.8</ele>
        <time>2021-11-13T12:41:47Z</time>
      </trkpt>
      <trkpt lat="43.63448" lon="3.79226">
        <ele>109.9</ele>
        <time>2021-11-13T12:41:57Z</time>
      </trkpt>
      <trkpt lat="43.63485" lon="3.79236">
        <ele>109.5</ele>
        <time>2021-11-13T12:42:07Z</time>
      </trkpt>
      <trkpt lat="43.63519" lon="3.79248">
        <ele>109.7</ele>
        <time>2021-11-13T12:42:17Z</time>
      </trkpt>
      <trkpt lat="43.63551" lon="3.79257">
        <ele>110.8</ele>
        <time>2021-11-13T12:42:27Z</time>
      </trkpt>
      <trkpt lat="43.6358" lon="3.79266">
        <ele>111.9</ele>
        <time>2021-11-13T12:42:37Z</time>
      </trkpt>
      <trkpt lat="43.63602" lon="3.79275">
        <ele>113.3</ele>
        <time>2021-11-13T12:42:47Z</time>
      </trkpt>
      <trkpt lat="43.63623" lon="3.79282">
        <ele>114.9</ele>
        <time>2021-11-13T12:42:57Z</time>
      </trkpt>
      <trkpt lat="43.63645" lon="3.79289">
        <ele>116</ele>
        <time>2021-11-13T12:43:07Z</time>
      </trkpt>
      <trkpt lat="43.6367" lon="3.79296">
        <ele>116</ele>
        <time>2021-11-13T12:43:17Z</time>
      </trkpt>
      <trkpt lat="43.63697" lon="3.79304">
        <ele>116</ele>
        <time>2021-11-13T12:43:27Z</time>
      </trkpt>
      <trkpt lat="43.63717" lon="3.79306">
        <ele>116</ele>
        <time>2021-11-13T12:43:37Z</time>
      </trkpt>
      <trkpt lat="43.63744" lon="3.79315">
        <ele>116.7</ele>
        <time>2021-11-13T12:43:47Z</time>
      </trkpt>
      <trkpt lat="43.6377" lon="3.79319">
        <ele>117.4</ele>
        <time>2021-11-13T12:43:57Z</time>
      </trkpt>
      <trkpt lat="43.63782" lon="3.79323">
        <ele>117.4</ele>
        <time>2021-11-13T12:44:07Z</time>
      </trkpt>
      <trkpt lat="43.63795" lon="3.7934">
        <ele>116.8</ele>
        <time>2021-11-13T12:44:17Z</time>
      </trkpt>
      <trkpt lat="43.63819" lon="3.79352">
        <ele>116.2</ele>
        <time>2021-11-13T12:44:27Z</time>
      </trkpt>
      <trkpt lat="43.63846" lon="3.79367">
        <ele>116.6</ele>
        <time>2021-11-13T12:44:37Z</time>
      </trkpt>
      <trkpt lat="43.63865" lon="3.79378">
        <ele>117.9</ele>
        <time>2021-11-13T12:44:47Z</time>
      </trkpt>
      <trkpt lat="43.63879" lon="3.79394">
        <ele>119.5</ele>
        <time>2021-11-13T12:44:57Z</time>
      </trkpt>
      <trkpt lat="43.63897" lon="3.79395">
        <ele>121</ele>
        <time>2021-11-13T12:45:07Z</time>
      </trkpt>
      <trkpt lat="43.63913" lon="3.79402">
        <ele>122.7</ele>
        <time>2021-11-13T12:45:17Z</time>
      </trkpt>
      <trkpt lat="43.63928" lon="3.79409">
        <ele>123.4</ele>
        <time>2021-11-13T12:45:27Z</time>
      </trkpt>
      <trkpt lat="43.63942" lon="3.79417">
        <ele>123.9</ele>
        <time>2021-11-13T12:45:37Z</time>
      </trkpt>
      <trkpt lat="43.63959" lon="3.79419">
        <ele>124.6</ele>
        <time>2021-11-13T12:45:47Z</time>
      </trkpt>
      <trkpt lat="43.63979" lon="3.7941">
        <ele>124.4</ele>
        <time>2021-11-13T12:45:57Z</time>
      </trkpt>
      <trkpt lat="43.63998" lon="3.79379">
        <ele>124</ele>
        <time>2021-11-13T12:46:07Z</time>
      </trkpt>
      <trkpt lat="43.64018" lon="3.79342">
        <ele>123.8</ele>
        <time>2021-11-13T12:46:17Z</time>
      </trkpt>
      <trkpt lat="43.64038" lon="3.79306">
        <ele>121.9</ele>
        <time>2021-11-13T12:46:27Z</time>
      </trkpt>
      <trkpt lat="43.64059" lon="3.7926">
        <ele>121.8</ele>
        <time>2021-11-13T12:46:37Z</time>
      </trkpt>
      <trkpt lat="43.64092" lon="3.79224">
        <ele>120.6</ele>
        <time>2021-11-13T12:46:47Z</time>
      </trkpt>
      <trkpt lat="43.64126" lon="3.7919">
        <ele>119.9</ele>
        <time>2021-11-13T12:46:57Z</time>
      </trkpt>
      <trkpt lat="43.64158" lon="3.79155">
        <ele>121</ele>
        <time>2021-11-13T12:47:07Z</time>
      </trkpt>
      <trkpt lat="43.64184" lon="3.79122">
        <ele>121.4</ele>
        <time>2021-11-13T12:47:17Z</time>
      </trkpt>
      <trkpt lat="43.64204" lon="3.79077">
        <ele>122.3</ele>
        <time>2021-11-13T12:47:27Z</time>
      </trkpt>
      <trkpt lat="43.64227" lon="3.79043">
        <ele>123.2</ele>
        <time>2021-11-13T12:47:37Z</time>
      </trkpt>
      <trkpt lat="43.64249" lon="3.7902">
        <ele>124.5</ele>
        <time>2021-11-13T12:47:47Z</time>
      </trkpt>
      <trkpt lat="43.64277" lon="3.7899">
        <ele>126.7</ele>
        <time>2021-11-13T12:48:27Z</time>
      </trkpt>
      <trkpt lat="43.64284" lon="3.78954">
        <ele>127.7</ele>
        <time>2021-11-13T12:48:47Z</time>
      </trkpt>
      <trkpt lat="43.64302" lon="3.78917">
        <ele>128</ele>
        <time>2021-11-13T12:48:57Z</time>
      </trkpt>
      <trkpt lat="43.64322" lon="3.78877">
        <ele>127.2</ele>
        <time>2021-11-13T12:49:07Z</time>
      </trkpt>
      <trkpt lat="43.64344" lon="3.78831">
        <ele>126.9</ele>
        <time>2021-11-13T12:49:17Z</time>
      </trkpt>
      <trkpt lat="43.64364" lon="3.78778">
        <ele>126.7</ele>
        <time>2021-11-13T12:49:27Z</time>
      </trkpt>
      <trkpt lat="43.64382" lon="3.7872">
        <ele>126.2</ele>
        <time>2021-11-13T12:49:37Z</time>
      </trkpt>
      <trkpt lat="43.64401" lon="3.78665">
        <ele>124.5</ele>
        <time>2021-11-13T12:49:47Z</time>
      </trkpt>
      <trkpt lat="43.64438" lon="3.78632">
        <ele>122.8</ele>
        <time>2021-11-13T12:49:57Z</time>
      </trkpt>
      <trkpt lat="43.6447" lon="3.7859">
        <ele>121.3</ele>
        <time>2021-11-13T12:50:07Z</time>
      </trkpt>
      <trkpt lat="43.64479" lon="3.78535">
        <ele>121.2</ele>
        <time>2021-11-13T12:50:17Z</time>
      </trkpt>
      <trkpt lat="43.64497" lon="3.78482">
        <ele>120.8</ele>
        <time>2021-11-13T12:50:27Z</time>
      </trkpt>
      <trkpt lat="43.64516" lon="3.78437">
        <ele>121.7</ele>
        <time>2021-11-13T12:50:37Z</time>
      </trkpt>
      <trkpt lat="43.64529" lon="3.78394">
        <ele>123</ele>
        <time>2021-11-13T12:50:47Z</time>
      </trkpt>
      <trkpt lat="43.64544" lon="3.78346">
        <ele>123</ele>
        <time>2021-11-13T12:50:57Z</time>
      </trkpt>
      <trkpt lat="43.64566" lon="3.783">
        <ele>122.5</ele>
        <time>2021-11-13T12:51:07Z</time>
      </trkpt>
      <trkpt lat="43.6459" lon="3.78261">
        <ele>123.2</ele>
        <time>2021-11-13T12:51:17Z</time>
      </trkpt>
      <trkpt lat="43.64602" lon="3.78222">
        <ele>124</ele>
        <time>2021-11-13T12:51:27Z</time>
      </trkpt>
      <trkpt lat="43.64608" lon="3.78183">
        <ele>124.4</ele>
        <time>2021-11-13T12:51:37Z</time>
      </trkpt>
      <trkpt lat="43.64597" lon="3.7814">
        <ele>126</ele>
        <time>2021-11-13T12:51:47Z</time>
      </trkpt>
      <trkpt lat="43.64585" lon="3.78095">
        <ele>125.6</ele>
        <time>2021-11-13T12:51:57Z</time>
      </trkpt>
      <trkpt lat="43.64574" lon="3.78047">
        <ele>125.7</ele>
        <time>2021-11-13T12:52:07Z</time>
      </trkpt>
      <trkpt lat="43.64566" lon="3.77994">
        <ele>125.9</ele>
        <time>2021-11-13T12:52:17Z</time>
      </trkpt>
      <trkpt lat="43.64555" lon="3.77941">
        <ele>126.1</ele>
        <time>2021-11-13T12:52:27Z</time>
      </trkpt>
      <trkpt lat="43.64542" lon="3.77891">
        <ele>128.4</ele>
        <time>2021-11-13T12:52:37Z</time>
      </trkpt>
      <trkpt lat="43.64522" lon="3.77853">
        <ele>128.5</ele>
        <time>2021-11-13T12:52:47Z</time>
      </trkpt>
      <trkpt lat="43.64496" lon="3.77822">
        <ele>129.3</ele>
        <time>2021-11-13T12:52:57Z</time>
      </trkpt>
      <trkpt lat="43.64496" lon="3.77787">
        <ele>130.5</ele>
        <time>2021-11-13T12:53:07Z</time>
      </trkpt>
      <trkpt lat="43.64503" lon="3.77762">
        <ele>132.2</ele>
        <time>2021-11-13T12:53:17Z</time>
      </trkpt>
      <trkpt lat="43.64512" lon="3.77739">
        <ele>133.6</ele>
        <time>2021-11-13T12:53:27Z</time>
      </trkpt>
      <trkpt lat="43.64518" lon="3.77717">
        <ele>134.4</ele>
        <time>2021-11-13T12:53:37Z</time>
      </trkpt>
      <trkpt lat="43.64522" lon="3.77693">
        <ele>134.8</ele>
        <time>2021-11-13T12:53:47Z</time>
      </trkpt>
      <trkpt lat="43.64551" lon="3.77651">
        <ele>130.1</ele>
        <time>2021-11-13T12:54:37Z</time>
      </trkpt>
      <trkpt lat="43.6458" lon="3.77614">
        <ele>123.9</ele>
        <time>2021-11-13T12:54:57Z</time>
      </trkpt>
      <trkpt lat="43.646" lon="3.77554">
        <ele>120.7</ele>
        <time>2021-11-13T12:55:07Z</time>
      </trkpt>
      <trkpt lat="43.64607" lon="3.77504">
        <ele>121.9</ele>
        <time>2021-11-13T12:55:17Z</time>
      </trkpt>
      <trkpt lat="43.64615" lon="3.77472">
        <ele>123.7</ele>
        <time>2021-11-13T12:55:27Z</time>
      </trkpt>
      <trkpt lat="43.64623" lon="3.77444">
        <ele>124.6</ele>
        <time>2021-11-13T12:55:37Z</time>
      </trkpt>
      <trkpt lat="43.64628" lon="3.77415">
        <ele>125.2</ele>
        <time>2021-11-13T12:55:47Z</time>
      </trkpt>
      <trkpt lat="43.64631" lon="3.77384">
        <ele>125.9</ele>
        <time>2021-11-13T12:55:57Z</time>
      </trkpt>
      <trkpt lat="43.6463" lon="3.77351">
        <ele>126.1</ele>
        <time>2021-11-13T12:56:07Z</time>
      </trkpt>
      <trkpt lat="43.64629" lon="3.77318">
        <ele>126.8</ele>
        <time>2021-11-13T12:56:17Z</time>
      </trkpt>
      <trkpt lat="43.64637" lon="3.77293">
        <ele>125.9</ele>
        <time>2021-11-13T12:56:27Z</time>
      </trkpt>
      <trkpt lat="43.64632" lon="3.77256">
        <ele>127.2</ele>
        <time>2021-11-13T12:56:37Z</time>
      </trkpt>
      <trkpt lat="43.64621" lon="3.77219">
        <ele>129.7</ele>
        <time>2021-11-13T12:56:47Z</time>
      </trkpt>
      <trkpt lat="43.64623" lon="3.7718">
        <ele>128.8</ele>
        <time>2021-11-13T12:56:57Z</time>
      </trkpt>
      <trkpt lat="43.64632" lon="3.77144">
        <ele>130.4</ele>
        <time>2021-11-13T12:57:07Z</time>
      </trkpt>
      <trkpt lat="43.64642" lon="3.77112">
        <ele>132.3</ele>
        <time>2021-11-13T12:57:17Z</time>
      </trkpt>
      <trkpt lat="43.64652" lon="3.77078">
        <ele>133.3</ele>
        <time>2021-11-13T12:57:27Z</time>
      </trkpt>
      <trkpt lat="43.64658" lon="3.7704">
        <ele>133.4</ele>
        <time>2021-11-13T12:57:37Z</time>
      </trkpt>
      <trkpt lat="43.64659" lon="3.77">
        <ele>133.2</ele>
        <time>2021-11-13T12:57:47Z</time>
      </trkpt>
      <trkpt lat="43.6466" lon="3.76956">
        <ele>133.3</ele>
        <time>2021-11-13T12:57:57Z</time>
      </trkpt>
      <trkpt lat="43.6466" lon="3.76907">
        <ele>133.4</ele>
        <time>2021-11-13T12:58:07Z</time>
      </trkpt>
      <trkpt lat="43.64662" lon="3.76852">
        <ele>133.7</ele>
        <time>2021-11-13T12:58:17Z</time>
      </trkpt>
      <trkpt lat="43.64655" lon="3.76807">
        <ele>133.2</ele>
        <time>2021-11-13T12:58:27Z</time>
      </trkpt>
      <trkpt lat="43.64663" lon="3.76763">
        <ele>134.3</ele>
        <time>2021-11-13T12:58:57Z</time>
      </trkpt>
      <trkpt lat="43.64669" lon="3.76722">
        <ele>135.3</ele>
        <time>2021-11-13T12:59:17Z</time>
      </trkpt>
      <trkpt lat="43.64675" lon="3.76682">
        <ele>135.9</ele>
        <time>2021-11-13T12:59:27Z</time>
      </trkpt>
      <trkpt lat="43.64682" lon="3.76634">
        <ele>136</ele>
        <time>2021-11-13T12:59:37Z</time>
      </trkpt>
      <trkpt lat="43.64692" lon="3.76588">
        <ele>136</ele>
        <time>2021-11-13T12:59:47Z</time>
      </trkpt>
      <trkpt lat="43.647" lon="3.76538">
        <ele>136</ele>
        <time>2021-11-13T12:59:57Z</time>
      </trkpt>
      <trkpt lat="43.64718" lon="3.76498">
        <ele>137.6</ele>
        <time>2021-11-13T13:00:07Z</time>
      </trkpt>
      <trkpt lat="43.64737" lon="3.7646">
        <ele>138.4</ele>
        <time>2021-11-13T13:00:17Z</time>
      </trkpt>
      <trkpt lat="43.64744" lon="3.76412">
        <ele>138.6</ele>
        <time>2021-11-13T13:00:27Z</time>
      </trkpt>
      <trkpt lat="43.64748" lon="3.76366">
        <ele>139</ele>
        <time>2021-11-13T13:00:37Z</time>
      </trkpt>
      <trkpt lat="43.64727" lon="3.7637">
        <ele>139.3</ele>
        <time>2021-11-13T13:00:47Z</time>
      </trkpt>
      <trkpt lat="43.64704" lon="3.76363">
        <ele>140.6</ele>
        <time>2021-11-13T13:00:57Z</time>
      </trkpt>
      <trkpt lat="43.64684" lon="3.76351">
        <ele>141</ele>
        <time>2021-11-13T13:01:07Z</time>
      </trkpt>
      <trkpt lat="43.64684" lon="3.76316">
        <ele>141</ele>
        <time>2021-11-13T13:01:17Z</time>
      </trkpt>
      <trkpt lat="43.6468" lon="3.76267">
        <ele>140.8</ele>
        <time>2021-11-13T13:01:27Z</time>
      </trkpt>
      <trkpt lat="43.64674" lon="3.76225">
        <ele>141</ele>
        <time>2021-11-13T13:01:37Z</time>
      </trkpt>
      <trkpt lat="43.64675" lon="3.76181">
        <ele>141</ele>
        <time>2021-11-13T13:01:47Z</time>
      </trkpt>
      <trkpt lat="43.64674" lon="3.76137">
        <ele>141</ele>
        <time>2021-11-13T13:01:57Z</time>
      </trkpt>
      <trkpt lat="43.64672" lon="3.76094">
        <ele>141</ele>
        <time>2021-11-13T13:02:07Z</time>
      </trkpt>
      <trkpt lat="43.64673" lon="3.76053">
        <ele>141</ele>
        <time>2021-11-13T13:02:17Z</time>
      </trkpt>
      <trkpt lat="43.64677" lon="3.76016">
        <ele>141.2</ele>
        <time>2021-11-13T13:02:27Z</time>
      </trkpt>
      <trkpt lat="43.64704" lon="3.76005">
        <ele>141.7</ele>
        <time>2021-11-13T13:02:37Z</time>
      </trkpt>
      <trkpt lat="43.64722" lon="3.75993">
        <ele>143</ele>
        <time>2021-11-13T13:02:47Z</time>
      </trkpt>
      <trkpt lat="43.64719" lon="3.75949">
        <ele>143.7</ele>
        <time>2021-11-13T13:02:57Z</time>
      </trkpt>
      <trkpt lat="43.64711" lon="3.75915">
        <ele>144.7</ele>
        <time>2021-11-13T13:03:07Z</time>
      </trkpt>
      <trkpt lat="43.64683" lon="3.75889">
        <ele>144.6</ele>
        <time>2021-11-13T13:03:17Z</time>
      </trkpt>
      <trkpt lat="43.64649" lon="3.75871">
        <ele>144.9</ele>
        <time>2021-11-13T13:03:27Z</time>
      </trkpt>
      <trkpt lat="43.64618" lon="3.75846">
        <ele>144.8</ele>
        <time>2021-11-13T13:03:37Z</time>
      </trkpt>
      <trkpt lat="43.64598" lon="3.75803">
        <ele>145.5</ele>
        <time>2021-11-13T13:03:47Z</time>
      </trkpt>
      <trkpt lat="43.64578" lon="3.75755">
        <ele>144.6</ele>
        <time>2021-11-13T13:03:57Z</time>
      </trkpt>
      <trkpt lat="43.64559" lon="3.7571">
        <ele>143.2</ele>
        <time>2021-11-13T13:04:07Z</time>
      </trkpt>
      <trkpt lat="43.64534" lon="3.75673">
        <ele>142.2</ele>
        <time>2021-11-13T13:04:17Z</time>
      </trkpt>
      <trkpt lat="43.64493" lon="3.75642">
        <ele>141.7</ele>
        <time>2021-11-13T13:04:27Z</time>
      </trkpt>
      <trkpt lat="43.64456" lon="3.75605">
        <ele>142.2</ele>
        <time>2021-11-13T13:04:37Z</time>
      </trkpt>
      <trkpt lat="43.64415" lon="3.75576">
        <ele>142</ele>
        <time>2021-11-13T13:04:47Z</time>
      </trkpt>
      <trkpt lat="43.64373" lon="3.75558">
        <ele>140.9</ele>
        <time>2021-11-13T13:04:57Z</time>
      </trkpt>
      <trkpt lat="43.64348" lon="3.7555">
        <ele>139.7</ele>
        <time>2021-11-13T13:05:07Z</time>
      </trkpt>
      <trkpt lat="43.64318" lon="3.75527">
        <ele>138.9</ele>
        <time>2021-11-13T13:05:17Z</time>
      </trkpt>
      <trkpt lat="43.64283" lon="3.75498">
        <ele>138.3</ele>
        <time>2021-11-13T13:05:27Z</time>
      </trkpt>
      <trkpt lat="43.64274" lon="3.75493">
        <ele>138.1</ele>
        <time>2021-11-13T13:05:37Z</time>
      </trkpt>
      <trkpt lat="43.64265" lon="3.75486">
        <ele>137.8</ele>
        <time>2021-11-13T13:05:47Z</time>
      </trkpt>
      <trkpt lat="43.6425" lon="3.75451">
        <ele>137</ele>
        <time>2021-11-13T13:05:57Z</time>
      </trkpt>
      <trkpt lat="43.64243" lon="3.75402">
        <ele>138.3</ele>
        <time>2021-11-13T13:06:07Z</time>
      </trkpt>
      <trkpt lat="43.64232" lon="3.75357">
        <ele>138.7</ele>
        <time>2021-11-13T13:06:17Z</time>
      </trkpt>
      <trkpt lat="43.64219" lon="3.75315">
        <ele>139.2</ele>
        <time>2021-11-13T13:06:27Z</time>
      </trkpt>
      <trkpt lat="43.64203" lon="3.7528">
        <ele>140.7</ele>
        <time>2021-11-13T13:06:37Z</time>
      </trkpt>
      <trkpt lat="43.64186" lon="3.75251">
        <ele>141.2</ele>
        <time>2021-11-13T13:06:47Z</time>
      </trkpt>
      <trkpt lat="43.6417" lon="3.75229">
        <ele>142.9</ele>
        <time>2021-11-13T13:06:57Z</time>
      </trkpt>
      <trkpt lat="43.64156" lon="3.75205">
        <ele>143.2</ele>
        <time>2021-11-13T13:07:07Z</time>
      </trkpt>
      <trkpt lat="43.64142" lon="3.75177">
        <ele>144</ele>
        <time>2021-11-13T13:07:17Z</time>
      </trkpt>
      <trkpt lat="43.64129" lon="3.75147">
        <ele>144.6</ele>
        <time>2021-11-13T13:07:27Z</time>
      </trkpt>
      <trkpt lat="43.64114" lon="3.75114">
        <ele>144.9</ele>
        <time>2021-11-13T13:07:37Z</time>
      </trkpt>
      <trkpt lat="43.64099" lon="3.75083">
        <ele>145.7</ele>
        <time>2021-11-13T13:07:47Z</time>
      </trkpt>
      <trkpt lat="43.64085" lon="3.75055">
        <ele>146.8</ele>
        <time>2021-11-13T13:07:57Z</time>
      </trkpt>
      <trkpt lat="43.64072" lon="3.75028">
        <ele>148.2</ele>
        <time>2021-11-13T13:08:07Z</time>
      </trkpt>
      <trkpt lat="43.64059" lon="3.75007">
        <ele>149.6</ele>
        <time>2021-11-13T13:08:17Z</time>
      </trkpt>
      <trkpt lat="43.64043" lon="3.74997">
        <ele>150.8</ele>
        <time>2021-11-13T13:08:27Z</time>
      </trkpt>
      <trkpt lat="43.64029" lon="3.74987">
        <ele>151.4</ele>
        <time>2021-11-13T13:08:37Z</time>
      </trkpt>
      <trkpt lat="43.64015" lon="3.7497">
        <ele>151.8</ele>
        <time>2021-11-13T13:08:47Z</time>
      </trkpt>
      <trkpt lat="43.63997" lon="3.74954">
        <ele>152.6</ele>
        <time>2021-11-13T13:08:57Z</time>
      </trkpt>
      <trkpt lat="43.63976" lon="3.74955">
        <ele>154.1</ele>
        <time>2021-11-13T13:09:07Z</time>
      </trkpt>
      <trkpt lat="43.63955" lon="3.74956">
        <ele>155.4</ele>
        <time>2021-11-13T13:09:17Z</time>
      </trkpt>
      <trkpt lat="43.63931" lon="3.74955">
        <ele>156.5</ele>
        <time>2021-11-13T13:09:27Z</time>
      </trkpt>
      <trkpt lat="43.63908" lon="3.74955">
        <ele>157.5</ele>
        <time>2021-11-13T13:09:37Z</time>
      </trkpt>
      <trkpt lat="43.63885" lon="3.74953">
        <ele>158.8</ele>
        <time>2021-11-13T13:09:47Z</time>
      </trkpt>
      <trkpt lat="43.63861" lon="3.7495">
        <ele>159.8</ele>
        <time>2021-11-13T13:09:57Z</time>
      </trkpt>
      <trkpt lat="43.63836" lon="3.74944">
        <ele>160</ele>
        <time>2021-11-13T13:10:07Z</time>
      </trkpt>
      <trkpt lat="43.638" lon="3.7494">
        <ele>159.3</ele>
        <time>2021-11-13T13:10:17Z</time>
      </trkpt>
      <trkpt lat="43.63762" lon="3.74935">
        <ele>160.1</ele>
        <time>2021-11-13T13:10:27Z</time>
      </trkpt>
      <trkpt lat="43.63725" lon="3.74935">
        <ele>161.2</ele>
        <time>2021-11-13T13:10:37Z</time>
      </trkpt>
      <trkpt lat="43.63694" lon="3.74931">
        <ele>163.5</ele>
        <time>2021-11-13T13:10:47Z</time>
      </trkpt>
      <trkpt lat="43.63659" lon="3.74927">
        <ele>163.3</ele>
        <time>2021-11-13T13:10:57Z</time>
      </trkpt>
      <trkpt lat="43.63621" lon="3.74925">
        <ele>163.6</ele>
        <time>2021-11-13T13:11:07Z</time>
      </trkpt>
      <trkpt lat="43.63583" lon="3.74908">
        <ele>163.3</ele>
        <time>2021-11-13T13:11:17Z</time>
      </trkpt>
      <trkpt lat="43.63548" lon="3.74885">
        <ele>162.7</ele>
        <time>2021-11-13T13:11:27Z</time>
      </trkpt>
      <trkpt lat="43.63502" lon="3.74854">
        <ele>160.4</ele>
        <time>2021-11-13T13:11:37Z</time>
      </trkpt>
      <trkpt lat="43.6345" lon="3.7482">
        <ele>158.8</ele>
        <time>2021-11-13T13:11:47Z</time>
      </trkpt>
      <trkpt lat="43.63402" lon="3.74788">
        <ele>157.9</ele>
        <time>2021-11-13T13:11:57Z</time>
      </trkpt>
      <trkpt lat="43.63354" lon="3.74758">
        <ele>157.6</ele>
        <time>2021-11-13T13:12:07Z</time>
      </trkpt>
      <trkpt lat="43.63306" lon="3.74727">
        <ele>153.6</ele>
        <time>2021-11-13T13:12:17Z</time>
      </trkpt>
      <trkpt lat="43.63256" lon="3.74694">
        <ele>155.1</ele>
        <time>2021-11-13T13:12:27Z</time>
      </trkpt>
      <trkpt lat="43.63199" lon="3.74657">
        <ele>151.6</ele>
        <time>2021-11-13T13:12:37Z</time>
      </trkpt>
      <trkpt lat="43.63187" lon="3.74622">
        <ele>149</ele>
        <time>2021-11-13T13:12:57Z</time>
      </trkpt>
      <trkpt lat="43.63192" lon="3.74567">
        <ele>149</ele>
        <time>2021-11-13T13:13:17Z</time>
      </trkpt>
      <trkpt lat="43.63186" lon="3.7451">
        <ele>150.1</ele>
        <time>2021-11-13T13:13:27Z</time>
      </trkpt>
      <trkpt lat="43.63182" lon="3.74473">
        <ele>152.1</ele>
        <time>2021-11-13T13:13:37Z</time>
      </trkpt>
      <trkpt lat="43.63175" lon="3.74441">
        <ele>153</ele>
        <time>2021-11-13T13:13:47Z</time>
      </trkpt>
      <trkpt lat="43.63155" lon="3.7441">
        <ele>152.4</ele>
        <time>2021-11-13T13:13:57Z</time>
      </trkpt>
      <trkpt lat="43.63139" lon="3.74371">
        <ele>152</ele>
        <time>2021-11-13T13:14:07Z</time>
      </trkpt>
      <trkpt lat="43.63118" lon="3.74342">
        <ele>150.7</ele>
        <time>2021-11-13T13:14:17Z</time>
      </trkpt>
      <trkpt lat="43.63096" lon="3.74314">
        <ele>149.1</ele>
        <time>2021-11-13T13:14:27Z</time>
      </trkpt>
      <trkpt lat="43.63064" lon="3.74308">
        <ele>145.4</ele>
        <time>2021-11-13T13:14:37Z</time>
      </trkpt>
      <trkpt lat="43.63055" lon="3.74302">
        <ele>143.8</ele>
        <time>2021-11-13T13:14:47Z</time>
      </trkpt>
      <trkpt lat="43.63071" lon="3.74308">
        <ele>146.4</ele>
        <time>2021-11-13T13:14:57Z</time>
      </trkpt>
      <trkpt lat="43.63086" lon="3.74314">
        <ele>148.5</ele>
        <time>2021-11-13T13:15:07Z</time>
      </trkpt>
      <trkpt lat="43.63104" lon="3.74317">
        <ele>149.6</ele>
        <time>2021-11-13T13:15:17Z</time>
      </trkpt>
      <trkpt lat="43.63116" lon="3.74338">
        <ele>150.5</ele>
        <time>2021-11-13T13:15:27Z</time>
      </trkpt>
      <trkpt lat="43.63132" lon="3.7435">
        <ele>151.8</ele>
        <time>2021-11-13T13:15:37Z</time>
      </trkpt>
      <trkpt lat="43.63139" lon="3.74371">
        <ele>152</ele>
        <time>2021-11-13T13:15:47Z</time>
      </trkpt>
      <trkpt lat="43.63149" lon="3.74396">
        <ele>152.5</ele>
        <time>2021-11-13T13:15:57Z</time>
      </trkpt>
      <trkpt lat="43.63162" lon="3.74421">
        <ele>152.5</ele>
        <time>2021-11-13T13:16:07Z</time>
      </trkpt>
      <trkpt lat="43.63178" lon="3.74428">
        <ele>153.8</ele>
        <time>2021-11-13T13:16:17Z</time>
      </trkpt>
      <trkpt lat="43.63174" lon="3.744">
        <ele>154.4</ele>
        <time>2021-11-13T13:16:27Z</time>
      </trkpt>
      <trkpt lat="43.63172" lon="3.74368">
        <ele>155.9</ele>
        <time>2021-11-13T13:16:37Z</time>
      </trkpt>
      <trkpt lat="43.63169" lon="3.74336">
        <ele>156.2</ele>
        <time>2021-11-13T13:16:47Z</time>
      </trkpt>
      <trkpt lat="43.63165" lon="3.74303">
        <ele>155.8</ele>
        <time>2021-11-13T13:16:57Z</time>
      </trkpt>
      <trkpt lat="43.63162" lon="3.74275">
        <ele>155.3</ele>
        <time>2021-11-13T13:17:07Z</time>
      </trkpt>
      <trkpt lat="43.63158" lon="3.74241">
        <ele>153.9</ele>
        <time>2021-11-13T13:17:17Z</time>
      </trkpt>
      <trkpt lat="43.63153" lon="3.74195">
        <ele>151.1</ele>
        <time>2021-11-13T13:17:27Z</time>
      </trkpt>
      <trkpt lat="43.63156" lon="3.74133">
        <ele>147.6</ele>
        <time>2021-11-13T13:17:37Z</time>
      </trkpt>
      <trkpt lat="43.6317" lon="3.74072">
        <ele>144.1</ele>
        <time>2021-11-13T13:17:47Z</time>
      </trkpt>
      <trkpt lat="43.63183" lon="3.74045">
        <ele>145.6</ele>
        <time>2021-11-13T13:17:57Z</time>
      </trkpt>
      <trkpt lat="43.63182" lon="3.74036">
        <ele>147.1</ele>
        <time>2021-11-13T13:18:07Z</time>
      </trkpt>
      <trkpt lat="43.6318" lon="3.74028">
        <ele>148.4</ele>
        <time>2021-11-13T13:18:17Z</time>
      </trkpt>
      <trkpt lat="43.63178" lon="3.7402">
        <ele>149.3</ele>
        <time>2021-11-13T13:18:27Z</time>
      </trkpt>
      <trkpt lat="43.63175" lon="3.74009">
        <ele>150.6</ele>
        <time>2021-11-13T13:18:37Z</time>
      </trkpt>
      <trkpt lat="43.63173" lon="3.74">
        <ele>151.7</ele>
        <time>2021-11-13T13:18:47Z</time>
      </trkpt>
      <trkpt lat="43.6317" lon="3.73991">
        <ele>152.3</ele>
        <time>2021-11-13T13:18:57Z</time>
      </trkpt>
      <trkpt lat="43.63168" lon="3.73983">
        <ele>152.9</ele>
        <time>2021-11-13T13:19:07Z</time>
      </trkpt>
      <trkpt lat="43.63178" lon="3.73959">
        <ele>155.2</ele>
        <time>2021-11-13T13:23:47Z</time>
      </trkpt>
      <trkpt lat="43.63179" lon="3.73933">
        <ele>156.5</ele>
        <time>2021-11-13T13:24:07Z</time>
      </trkpt>
      <trkpt lat="43.63186" lon="3.73909">
        <ele>156.7</ele>
        <time>2021-11-13T13:24:17Z</time>
      </trkpt>
      <trkpt lat="43.63197" lon="3.73888">
        <ele>156.4</ele>
        <time>2021-11-13T13:24:27Z</time>
      </trkpt>
      <trkpt lat="43.63195" lon="3.73866">
        <ele>158.5</ele>
        <time>2021-11-13T13:24:37Z</time>
      </trkpt>
      <trkpt lat="43.63191" lon="3.73844">
        <ele>159.6</ele>
        <time>2021-11-13T13:24:47Z</time>
      </trkpt>
      <trkpt lat="43.63193" lon="3.73816">
        <ele>159.3</ele>
        <time>2021-11-13T13:24:57Z</time>
      </trkpt>
      <trkpt lat="43.63208" lon="3.73797">
        <ele>160.3</ele>
        <time>2021-11-13T13:25:07Z</time>
      </trkpt>
      <trkpt lat="43.63221" lon="3.73777">
        <ele>160.8</ele>
        <time>2021-11-13T13:25:17Z</time>
      </trkpt>
      <trkpt lat="43.63231" lon="3.73744">
        <ele>159.7</ele>
        <time>2021-11-13T13:25:27Z</time>
      </trkpt>
      <trkpt lat="43.63239" lon="3.73707">
        <ele>159.3</ele>
        <time>2021-11-13T13:25:37Z</time>
      </trkpt>
      <trkpt lat="43.63247" lon="3.73674">
        <ele>158.9</ele>
        <time>2021-11-13T13:25:47Z</time>
      </trkpt>
      <trkpt lat="43.63248" lon="3.73634">
        <ele>157.6</ele>
        <time>2021-11-13T13:25:57Z</time>
      </trkpt>
      <trkpt lat="43.63248" lon="3.73648">
        <ele>158.1</ele>
        <time>2021-11-13T13:27:17Z</time>
      </trkpt>
      <trkpt lat="43.63245" lon="3.73678">
        <ele>158.9</ele>
        <time>2021-11-13T13:27:37Z</time>
      </trkpt>
      <trkpt lat="43.63236" lon="3.73714">
        <ele>159.2</ele>
        <time>2021-11-13T13:27:47Z</time>
      </trkpt>
      <trkpt lat="43.63228" lon="3.73747">
        <ele>159.5</ele>
        <time>2021-11-13T13:27:57Z</time>
      </trkpt>
      <trkpt lat="43.63221" lon="3.73781">
        <ele>161.1</ele>
        <time>2021-11-13T13:28:07Z</time>
      </trkpt>
      <trkpt lat="43.63198" lon="3.73806">
        <ele>159.5</ele>
        <time>2021-11-13T13:28:17Z</time>
      </trkpt>
      <trkpt lat="43.63181" lon="3.7378">
        <ele>156.7</ele>
        <time>2021-11-13T13:28:27Z</time>
      </trkpt>
      <trkpt lat="43.63178" lon="3.73751">
        <ele>155.4</ele>
        <time>2021-11-13T13:28:37Z</time>
      </trkpt>
      <trkpt lat="43.63179" lon="3.73741">
        <ele>155.1</ele>
        <time>2021-11-13T13:28:47Z</time>
      </trkpt>
      <trkpt lat="43.63179" lon="3.73712">
        <ele>154.1</ele>
        <time>2021-11-13T13:29:57Z</time>
      </trkpt>
      <trkpt lat="43.63178" lon="3.73737">
        <ele>154.9</ele>
        <time>2021-11-13T13:30:17Z</time>
      </trkpt>
      <trkpt lat="43.63178" lon="3.73766">
        <ele>156</ele>
        <time>2021-11-13T13:30:27Z</time>
      </trkpt>
      <trkpt lat="43.63181" lon="3.73791">
        <ele>157.5</ele>
        <time>2021-11-13T13:30:37Z</time>
      </trkpt>
      <trkpt lat="43.63187" lon="3.73812">
        <ele>159</ele>
        <time>2021-11-13T13:30:47Z</time>
      </trkpt>
      <trkpt lat="43.6319" lon="3.73836">
        <ele>159.8</ele>
        <time>2021-11-13T13:30:57Z</time>
      </trkpt>
      <trkpt lat="43.63194" lon="3.73867">
        <ele>158.4</ele>
        <time>2021-11-13T13:31:07Z</time>
      </trkpt>
      <trkpt lat="43.63186" lon="3.73909">
        <ele>156.7</ele>
        <time>2021-11-13T13:31:17Z</time>
      </trkpt>
      <trkpt lat="43.63178" lon="3.73948">
        <ele>155.8</ele>
        <time>2021-11-13T13:31:27Z</time>
      </trkpt>
      <trkpt lat="43.63162" lon="3.73983">
        <ele>153</ele>
        <time>2021-11-13T13:31:37Z</time>
      </trkpt>
      <trkpt lat="43.63133" lon="3.74006">
        <ele>151.6</ele>
        <time>2021-11-13T13:31:47Z</time>
      </trkpt>
      <trkpt lat="43.63107" lon="3.74025">
        <ele>151.6</ele>
        <time>2021-11-13T13:31:57Z</time>
      </trkpt>
      <trkpt lat="43.63079" lon="3.74044">
        <ele>150.9</ele>
        <time>2021-11-13T13:32:07Z</time>
      </trkpt>
      <trkpt lat="43.63045" lon="3.7408">
        <ele>148.7</ele>
        <time>2021-11-13T13:32:17Z</time>
      </trkpt>
      <trkpt lat="43.63016" lon="3.74111">
        <ele>146.4</ele>
        <time>2021-11-13T13:32:27Z</time>
      </trkpt>
      <trkpt lat="43.63005" lon="3.74125">
        <ele>145.3</ele>
        <time>2021-11-13T13:32:57Z</time>
      </trkpt>
      <trkpt lat="43.62978" lon="3.74156">
        <ele>142.6</ele>
        <time>2021-11-13T13:33:17Z</time>
      </trkpt>
      <trkpt lat="43.62934" lon="3.74187">
        <ele>138.3</ele>
        <time>2021-11-13T13:33:27Z</time>
      </trkpt>
      <trkpt lat="43.62897" lon="3.74154">
        <ele>137.7</ele>
        <time>2021-11-13T13:33:37Z</time>
      </trkpt>
      <trkpt lat="43.62874" lon="3.74162">
        <ele>135.4</ele>
        <time>2021-11-13T13:33:47Z</time>
      </trkpt>
      <trkpt lat="43.62854" lon="3.74221">
        <ele>130.8</ele>
        <time>2021-11-13T13:34:07Z</time>
      </trkpt>
      <trkpt lat="43.62845" lon="3.74275">
        <ele>126.8</ele>
        <time>2021-11-13T13:34:17Z</time>
      </trkpt>
      <trkpt lat="43.62832" lon="3.74258">
        <ele>125.5</ele>
        <time>2021-11-13T13:34:27Z</time>
      </trkpt>
      <trkpt lat="43.62817" lon="3.74207">
        <ele>124.3</ele>
        <time>2021-11-13T13:34:37Z</time>
      </trkpt>
      <trkpt lat="43.62802" lon="3.7413">
        <ele>120.7</ele>
        <time>2021-11-13T13:34:47Z</time>
      </trkpt>
      <trkpt lat="43.62785" lon="3.74046">
        <ele>119.6</ele>
        <time>2021-11-13T13:34:57Z</time>
      </trkpt>
      <trkpt lat="43.62775" lon="3.73979">
        <ele>120.1</ele>
        <time>2021-11-13T13:35:07Z</time>
      </trkpt>
      <trkpt lat="43.62764" lon="3.73928">
        <ele>121.4</ele>
        <time>2021-11-13T13:35:17Z</time>
      </trkpt>
      <trkpt lat="43.62751" lon="3.73882">
        <ele>120.8</ele>
        <time>2021-11-13T13:35:27Z</time>
      </trkpt>
      <trkpt lat="43.6273" lon="3.73835">
        <ele>120.8</ele>
        <time>2021-11-13T13:35:37Z</time>
      </trkpt>
      <trkpt lat="43.62719" lon="3.73793">
        <ele>121.5</ele>
        <time>2021-11-13T13:35:47Z</time>
      </trkpt>
      <trkpt lat="43.62713" lon="3.7376">
        <ele>122.1</ele>
        <time>2021-11-13T13:35:57Z</time>
      </trkpt>
      <trkpt lat="43.62705" lon="3.73718">
        <ele>121.5</ele>
        <time>2021-11-13T13:36:07Z</time>
      </trkpt>
      <trkpt lat="43.62697" lon="3.73673">
        <ele>120.6</ele>
        <time>2021-11-13T13:36:17Z</time>
      </trkpt>
      <trkpt lat="43.62688" lon="3.73626">
        <ele>120.3</ele>
        <time>2021-11-13T13:36:27Z</time>
      </trkpt>
      <trkpt lat="43.62677" lon="3.73578">
        <ele>119.6</ele>
        <time>2021-11-13T13:36:37Z</time>
      </trkpt>
      <trkpt lat="43.62677" lon="3.73552">
        <ele>119.2</ele>
        <time>2021-11-13T13:36:47Z</time>
      </trkpt>
      <trkpt lat="43.6269" lon="3.73544">
        <ele>120.4</ele>
        <time>2021-11-13T13:37:57Z</time>
      </trkpt>
      <trkpt lat="43.62717" lon="3.73532">
        <ele>121.1</ele>
        <time>2021-11-13T13:38:17Z</time>
      </trkpt>
      <trkpt lat="43.6274" lon="3.7351">
        <ele>123</ele>
        <time>2021-11-13T13:38:27Z</time>
      </trkpt>
      <trkpt lat="43.62755" lon="3.73488">
        <ele>124.3</ele>
        <time>2021-11-13T13:38:37Z</time>
      </trkpt>
      <trkpt lat="43.62765" lon="3.73464">
        <ele>125.1</ele>
        <time>2021-11-13T13:38:47Z</time>
      </trkpt>
      <trkpt lat="43.62768" lon="3.73443">
        <ele>126.5</ele>
        <time>2021-11-13T13:38:57Z</time>
      </trkpt>
      <trkpt lat="43.62768" lon="3.73426">
        <ele>128.2</ele>
        <time>2021-11-13T13:39:07Z</time>
      </trkpt>
      <trkpt lat="43.62769" lon="3.7341">
        <ele>129.6</ele>
        <time>2021-11-13T13:39:17Z</time>
      </trkpt>
      <trkpt lat="43.62768" lon="3.73395">
        <ele>131.1</ele>
        <time>2021-11-13T13:39:27Z</time>
      </trkpt>
      <trkpt lat="43.62769" lon="3.73379">
        <ele>132.3</ele>
        <time>2021-11-13T13:39:37Z</time>
      </trkpt>
      <trkpt lat="43.62768" lon="3.73365">
        <ele>133.4</ele>
        <time>2021-11-13T13:39:47Z</time>
      </trkpt>
      <trkpt lat="43.62767" lon="3.73351">
        <ele>134.7</ele>
        <time>2021-11-13T13:39:57Z</time>
      </trkpt>
      <trkpt lat="43.62769" lon="3.73335">
        <ele>136.2</ele>
        <time>2021-11-13T13:40:07Z</time>
      </trkpt>
      <trkpt lat="43.62771" lon="3.73319">
        <ele>137.7</ele>
        <time>2021-11-13T13:40:17Z</time>
      </trkpt>
      <trkpt lat="43.62771" lon="3.73303">
        <ele>139.2</ele>
        <time>2021-11-13T13:40:27Z</time>
      </trkpt>
      <trkpt lat="43.62773" lon="3.73286">
        <ele>140.4</ele>
        <time>2021-11-13T13:40:37Z</time>
      </trkpt>
      <trkpt lat="43.62774" lon="3.73269">
        <ele>141.6</ele>
        <time>2021-11-13T13:40:47Z</time>
      </trkpt>
      <trkpt lat="43.62775" lon="3.73251">
        <ele>142.8</ele>
        <time>2021-11-13T13:40:57Z</time>
      </trkpt>
      <trkpt lat="43.62776" lon="3.73231">
        <ele>143.6</ele>
        <time>2021-11-13T13:41:07Z</time>
      </trkpt>
      <trkpt lat="43.62779" lon="3.73213">
        <ele>144.4</ele>
        <time>2021-11-13T13:41:17Z</time>
      </trkpt>
      <trkpt lat="43.62774" lon="3.73258">
        <ele>142.3</ele>
        <time>2021-11-13T13:42:47Z</time>
      </trkpt>
      <trkpt lat="43.62755" lon="3.73247">
        <ele>142.3</ele>
        <time>2021-11-13T13:43:07Z</time>
      </trkpt>
      <trkpt lat="43.62738" lon="3.7322">
        <ele>143</ele>
        <time>2021-11-13T13:43:17Z</time>
      </trkpt>
      <trkpt lat="43.62732" lon="3.7319">
        <ele>142.2</ele>
        <time>2021-11-13T13:43:27Z</time>
      </trkpt>
      <trkpt lat="43.62732" lon="3.73154">
        <ele>141.5</ele>
        <time>2021-11-13T13:43:37Z</time>
      </trkpt>
      <trkpt lat="43.62738" lon="3.73115">
        <ele>140.3</ele>
        <time>2021-11-13T13:43:47Z</time>
      </trkpt>
      <trkpt lat="43.62743" lon="3.73075">
        <ele>138.3</ele>
        <time>2021-11-13T13:43:57Z</time>
      </trkpt>
      <trkpt lat="43.62742" lon="3.73022">
        <ele>135.1</ele>
        <time>2021-11-13T13:44:07Z</time>
      </trkpt>
      <trkpt lat="43.62738" lon="3.72965">
        <ele>131.7</ele>
        <time>2021-11-13T13:44:17Z</time>
      </trkpt>
      <trkpt lat="43.62736" lon="3.72912">
        <ele>129.2</ele>
        <time>2021-11-13T13:44:27Z</time>
      </trkpt>
      <trkpt lat="43.62738" lon="3.72861">
        <ele>127.1</ele>
        <time>2021-11-13T13:44:37Z</time>
      </trkpt>
      <trkpt lat="43.62743" lon="3.72819">
        <ele>126.2</ele>
        <time>2021-11-13T13:45:17Z</time>
      </trkpt>
      <trkpt lat="43.6275" lon="3.72779">
        <ele>126</ele>
        <time>2021-11-13T13:45:37Z</time>
      </trkpt>
      <trkpt lat="43.62755" lon="3.72737">
        <ele>126.3</ele>
        <time>2021-11-13T13:45:47Z</time>
      </trkpt>
      <trkpt lat="43.62769" lon="3.72703">
        <ele>126.9</ele>
        <time>2021-11-13T13:45:57Z</time>
      </trkpt>
      <trkpt lat="43.6277" lon="3.72669">
        <ele>128.6</ele>
        <time>2021-11-13T13:46:07Z</time>
      </trkpt>
      <trkpt lat="43.62769" lon="3.7264">
        <ele>129.3</ele>
        <time>2021-11-13T13:46:17Z</time>
      </trkpt>
      <trkpt lat="43.62769" lon="3.72613">
        <ele>130.3</ele>
        <time>2021-11-13T13:46:27Z</time>
      </trkpt>
      <trkpt lat="43.62764" lon="3.72585">
        <ele>131.9</ele>
        <time>2021-11-13T13:46:37Z</time>
      </trkpt>
      <trkpt lat="43.62754" lon="3.72558">
        <ele>130.9</ele>
        <time>2021-11-13T13:46:47Z</time>
      </trkpt>
      <trkpt lat="43.62748" lon="3.7253">
        <ele>131.7</ele>
        <time>2021-11-13T13:46:57Z</time>
      </trkpt>
      <trkpt lat="43.62746" lon="3.725">
        <ele>131.9</ele>
        <time>2021-11-13T13:47:07Z</time>
      </trkpt>
      <trkpt lat="43.62745" lon="3.72469">
        <ele>133.6</ele>
        <time>2021-11-13T13:47:17Z</time>
      </trkpt>
      <trkpt lat="43.62743" lon="3.72438">
        <ele>134.5</ele>
        <time>2021-11-13T13:47:27Z</time>
      </trkpt>
      <trkpt lat="43.62742" lon="3.72409">
        <ele>135.2</ele>
        <time>2021-11-13T13:47:37Z</time>
      </trkpt>
      <trkpt lat="43.62741" lon="3.72378">
        <ele>135.6</ele>
        <time>2021-11-13T13:47:47Z</time>
      </trkpt>
      <trkpt lat="43.62739" lon="3.72347">
        <ele>136.3</ele>
        <time>2021-11-13T13:47:57Z</time>
      </trkpt>
      <trkpt lat="43.62737" lon="3.72317">
        <ele>136.9</ele>
        <time>2021-11-13T13:48:07Z</time>
      </trkpt>
      <trkpt lat="43.62732" lon="3.72285">
        <ele>137.4</ele>
        <time>2021-11-13T13:48:17Z</time>
      </trkpt>
      <trkpt lat="43.62727" lon="3.72251">
        <ele>137.5</ele>
        <time>2021-11-13T13:48:27Z</time>
      </trkpt>
      <trkpt lat="43.62725" lon="3.72217">
        <ele>138.5</ele>
        <time>2021-11-13T13:48:37Z</time>
      </trkpt>
      <trkpt lat="43.6272" lon="3.72184">
        <ele>139</ele>
        <time>2021-11-13T13:48:47Z</time>
      </trkpt>
      <trkpt lat="43.62713" lon="3.72155">
        <ele>139.4</ele>
        <time>2021-11-13T13:48:57Z</time>
      </trkpt>
      <trkpt lat="43.62709" lon="3.72127">
        <ele>140.2</ele>
        <time>2021-11-13T13:49:07Z</time>
      </trkpt>
      <trkpt lat="43.62708" lon="3.72097">
        <ele>141</ele>
        <time>2021-11-13T13:49:17Z</time>
      </trkpt>
      <trkpt lat="43.62706" lon="3.72064">
        <ele>142.4</ele>
        <time>2021-11-13T13:49:27Z</time>
      </trkpt>
      <trkpt lat="43.62705" lon="3.72034">
        <ele>143.1</ele>
        <time>2021-11-13T13:49:37Z</time>
      </trkpt>
      <trkpt lat="43.62701" lon="3.72007">
        <ele>143.5</ele>
        <time>2021-11-13T13:49:47Z</time>
      </trkpt>
      <trkpt lat="43.62693" lon="3.71982">
        <ele>143.8</ele>
        <time>2021-11-13T13:49:57Z</time>
      </trkpt>
      <trkpt lat="43.62693" lon="3.71953">
        <ele>144.8</ele>
        <time>2021-11-13T13:50:07Z</time>
      </trkpt>
      <trkpt lat="43.62691" lon="3.71926">
        <ele>146.1</ele>
        <time>2021-11-13T13:50:17Z</time>
      </trkpt>
      <trkpt lat="43.62692" lon="3.71902">
        <ele>146.9</ele>
        <time>2021-11-13T13:50:27Z</time>
      </trkpt>
      <trkpt lat="43.62692" lon="3.71877">
        <ele>148.3</ele>
        <time>2021-11-13T13:50:37Z</time>
      </trkpt>
      <trkpt lat="43.62691" lon="3.71852">
        <ele>149.8</ele>
        <time>2021-11-13T13:50:47Z</time>
      </trkpt>
      <trkpt lat="43.62693" lon="3.71824">
        <ele>149.9</ele>
        <time>2021-11-13T13:50:57Z</time>
      </trkpt>
      <trkpt lat="43.62693" lon="3.71792">
        <ele>149.2</ele>
        <time>2021-11-13T13:51:07Z</time>
      </trkpt>
      <trkpt lat="43.6269" lon="3.71759">
        <ele>148.3</ele>
        <time>2021-11-13T13:51:17Z</time>
      </trkpt>
      <trkpt lat="43.62689" lon="3.71724">
        <ele>146.8</ele>
        <time>2021-11-13T13:51:27Z</time>
      </trkpt>
      <trkpt lat="43.62688" lon="3.71688">
        <ele>145.7</ele>
        <time>2021-11-13T13:51:37Z</time>
      </trkpt>
      <trkpt lat="43.62694" lon="3.71645">
        <ele>143.3</ele>
        <time>2021-11-13T13:51:47Z</time>
      </trkpt>
      <trkpt lat="43.62705" lon="3.71602">
        <ele>142.5</ele>
        <time>2021-11-13T13:51:57Z</time>
      </trkpt>
      <trkpt lat="43.62722" lon="3.71562">
        <ele>141.2</ele>
        <time>2021-11-13T13:52:07Z</time>
      </trkpt>
      <trkpt lat="43.62729" lon="3.71507">
        <ele>140.2</ele>
        <time>2021-11-13T13:52:17Z</time>
      </trkpt>
      <trkpt lat="43.62733" lon="3.71451">
        <ele>139.9</ele>
        <time>2021-11-13T13:52:27Z</time>
      </trkpt>
      <trkpt lat="43.62734" lon="3.71394">
        <ele>140.2</ele>
        <time>2021-11-13T13:52:37Z</time>
      </trkpt>
      <trkpt lat="43.62734" lon="3.71345">
        <ele>140.8</ele>
        <time>2021-11-13T13:52:47Z</time>
      </trkpt>
      <trkpt lat="43.62734" lon="3.71311">
        <ele>141.7</ele>
        <time>2021-11-13T13:52:57Z</time>
      </trkpt>
      <trkpt lat="43.62732" lon="3.71291">
        <ele>142</ele>
        <time>2021-11-13T13:53:07Z</time>
      </trkpt>
      <trkpt lat="43.62718" lon="3.71255">
        <ele>142.7</ele>
        <time>2021-11-13T13:54:07Z</time>
      </trkpt>
      <trkpt lat="43.62714" lon="3.7122">
        <ele>142.8</ele>
        <time>2021-11-13T13:54:27Z</time>
      </trkpt>
      <trkpt lat="43.62714" lon="3.71182">
        <ele>143.4</ele>
        <time>2021-11-13T13:54:37Z</time>
      </trkpt>
      <trkpt lat="43.62711" lon="3.71143">
        <ele>143.2</ele>
        <time>2021-11-13T13:54:47Z</time>
      </trkpt>
      <trkpt lat="43.62708" lon="3.71102">
        <ele>143.6</ele>
        <time>2021-11-13T13:54:57Z</time>
      </trkpt>
      <trkpt lat="43.62707" lon="3.71064">
        <ele>144.2</ele>
        <time>2021-11-13T13:55:07Z</time>
      </trkpt>
      <trkpt lat="43.62708" lon="3.71026">
        <ele>144.5</ele>
        <time>2021-11-13T13:55:17Z</time>
      </trkpt>
      <trkpt lat="43.62713" lon="3.70987">
        <ele>145.3</ele>
        <time>2021-11-13T13:55:27Z</time>
      </trkpt>
      <trkpt lat="43.62724" lon="3.70948">
        <ele>145.2</ele>
        <time>2021-11-13T13:55:37Z</time>
      </trkpt>
      <trkpt lat="43.62712" lon="3.70911">
        <ele>145.8</ele>
        <time>2021-11-13T13:55:47Z</time>
      </trkpt>
      <trkpt lat="43.62698" lon="3.70881">
        <ele>146.7</ele>
        <time>2021-11-13T13:55:57Z</time>
      </trkpt>
      <trkpt lat="43.62696" lon="3.70848">
        <ele>148.5</ele>
        <time>2021-11-13T13:56:07Z</time>
      </trkpt>
      <trkpt lat="43.62689" lon="3.70815">
        <ele>149.6</ele>
        <time>2021-11-13T13:56:17Z</time>
      </trkpt>
      <trkpt lat="43.62683" lon="3.70785">
        <ele>150.7</ele>
        <time>2021-11-13T13:56:27Z</time>
      </trkpt>
      <trkpt lat="43.62674" lon="3.7076">
        <ele>151.6</ele>
        <time>2021-11-13T13:56:37Z</time>
      </trkpt>
      <trkpt lat="43.62663" lon="3.70736">
        <ele>152.4</ele>
        <time>2021-11-13T13:56:47Z</time>
      </trkpt>
      <trkpt lat="43.62656" lon="3.70706">
        <ele>153</ele>
        <time>2021-11-13T13:56:57Z</time>
      </trkpt>
      <trkpt lat="43.62657" lon="3.70671">
        <ele>153.3</ele>
        <time>2021-11-13T13:57:07Z</time>
      </trkpt>
      <trkpt lat="43.62657" lon="3.70633">
        <ele>153.3</ele>
        <time>2021-11-13T13:57:17Z</time>
      </trkpt>
      <trkpt lat="43.62657" lon="3.70593">
        <ele>152.9</ele>
        <time>2021-11-13T13:57:27Z</time>
      </trkpt>
      <trkpt lat="43.6265" lon="3.70558">
        <ele>151.5</ele>
        <time>2021-11-13T13:57:37Z</time>
      </trkpt>
      <trkpt lat="43.62639" lon="3.7052">
        <ele>150.7</ele>
        <time>2021-11-13T13:57:47Z</time>
      </trkpt>
      <trkpt lat="43.62658" lon="3.70483">
        <ele>150.1</ele>
        <time>2021-11-13T13:59:47Z</time>
      </trkpt>
      <trkpt lat="43.62684" lon="3.70467">
        <ele>150.4</ele>
        <time>2021-11-13T14:00:07Z</time>
      </trkpt>
      <trkpt lat="43.62713" lon="3.70449">
        <ele>150.3</ele>
        <time>2021-11-13T14:00:17Z</time>
      </trkpt>
      <trkpt lat="43.62745" lon="3.70429">
        <ele>149.9</ele>
        <time>2021-11-13T14:00:27Z</time>
      </trkpt>
      <trkpt lat="43.6278" lon="3.70406">
        <ele>148.2</ele>
        <time>2021-11-13T14:00:37Z</time>
      </trkpt>
      <trkpt lat="43.6282" lon="3.7038">
        <ele>145.1</ele>
        <time>2021-11-13T14:00:47Z</time>
      </trkpt>
      <trkpt lat="43.62872" lon="3.7035">
        <ele>143.9</ele>
        <time>2021-11-13T14:00:57Z</time>
      </trkpt>
      <trkpt lat="43.62944" lon="3.70323">
        <ele>139</ele>
        <time>2021-11-13T14:01:07Z</time>
      </trkpt>
      <trkpt lat="43.63028" lon="3.70313">
        <ele>136.3</ele>
        <time>2021-11-13T14:01:17Z</time>
      </trkpt>
      <trkpt lat="43.63103" lon="3.70312">
        <ele>134.2</ele>
        <time>2021-11-13T14:01:27Z</time>
      </trkpt>
      <trkpt lat="43.63123" lon="3.70292">
        <ele>132.9</ele>
        <time>2021-11-13T14:01:47Z</time>
      </trkpt>
      <trkpt lat="43.63112" lon="3.70241">
        <ele>133.9</ele>
        <time>2021-11-13T14:02:07Z</time>
      </trkpt>
      <trkpt lat="43.63099" lon="3.70185">
        <ele>133.8</ele>
        <time>2021-11-13T14:02:17Z</time>
      </trkpt>
      <trkpt lat="43.6309" lon="3.70132">
        <ele>133.5</ele>
        <time>2021-11-13T14:02:27Z</time>
      </trkpt>
      <trkpt lat="43.63125" lon="3.7013">
        <ele>131.8</ele>
        <time>2021-11-13T14:02:37Z</time>
      </trkpt>
      <trkpt lat="43.63162" lon="3.70086">
        <ele>130</ele>
        <time>2021-11-13T14:02:47Z</time>
      </trkpt>
      <trkpt lat="43.63169" lon="3.70036">
        <ele>130.3</ele>
        <time>2021-11-13T14:02:57Z</time>
      </trkpt>
      <trkpt lat="43.63195" lon="3.70012">
        <ele>133.1</ele>
        <time>2021-11-13T14:03:07Z</time>
      </trkpt>
      <trkpt lat="43.63216" lon="3.69995">
        <ele>135.1</ele>
        <time>2021-11-13T14:03:17Z</time>
      </trkpt>
      <trkpt lat="43.63236" lon="3.69977">
        <ele>137.1</ele>
        <time>2021-11-13T14:03:27Z</time>
      </trkpt>
      <trkpt lat="43.63248" lon="3.69955">
        <ele>138.1</ele>
        <time>2021-11-13T14:03:37Z</time>
      </trkpt>
      <trkpt lat="43.63266" lon="3.69933">
        <ele>138.7</ele>
        <time>2021-11-13T14:03:47Z</time>
      </trkpt>
      <trkpt lat="43.63285" lon="3.69921">
        <ele>139.9</ele>
        <time>2021-11-13T14:03:57Z</time>
      </trkpt>
      <trkpt lat="43.63303" lon="3.69912">
        <ele>141.6</ele>
        <time>2021-11-13T14:04:07Z</time>
      </trkpt>
      <trkpt lat="43.63322" lon="3.69895">
        <ele>143.5</ele>
        <time>2021-11-13T14:04:17Z</time>
      </trkpt>
      <trkpt lat="43.6334" lon="3.69891">
        <ele>144.8</ele>
        <time>2021-11-13T14:04:27Z</time>
      </trkpt>
      <trkpt lat="43.63356" lon="3.69901">
        <ele>144.5</ele>
        <time>2021-11-13T14:04:37Z</time>
      </trkpt>
      <trkpt lat="43.63355" lon="3.69938">
        <ele>145.2</ele>
        <time>2021-11-13T14:04:47Z</time>
      </trkpt>
      <trkpt lat="43.63359" lon="3.69972">
        <ele>146</ele>
        <time>2021-11-13T14:04:57Z</time>
      </trkpt>
      <trkpt lat="43.63356" lon="3.7001">
        <ele>146.5</ele>
        <time>2021-11-13T14:05:07Z</time>
      </trkpt>
      <trkpt lat="43.63356" lon="3.70051">
        <ele>147.2</ele>
        <time>2021-11-13T14:05:17Z</time>
      </trkpt>
      <trkpt lat="43.63358" lon="3.70089">
        <ele>148.3</ele>
        <time>2021-11-13T14:05:27Z</time>
      </trkpt>
      <trkpt lat="43.63361" lon="3.70122">
        <ele>149.8</ele>
        <time>2021-11-13T14:05:37Z</time>
      </trkpt>
      <trkpt lat="43.63362" lon="3.70153">
        <ele>151</ele>
        <time>2021-11-13T14:05:47Z</time>
      </trkpt>
      <trkpt lat="43.63362" lon="3.70185">
        <ele>151.7</ele>
        <time>2021-11-13T14:05:57Z</time>
      </trkpt>
      <trkpt lat="43.63361" lon="3.7022">
        <ele>152.9</ele>
        <time>2021-11-13T14:06:07Z</time>
      </trkpt>
      <trkpt lat="43.63351" lon="3.70252">
        <ele>152.7</ele>
        <time>2021-11-13T14:06:17Z</time>
      </trkpt>
      <trkpt lat="43.6336" lon="3.70288">
        <ele>153.9</ele>
        <time>2021-11-13T14:06:27Z</time>
      </trkpt>
      <trkpt lat="43.63367" lon="3.70322">
        <ele>154.2</ele>
        <time>2021-11-13T14:06:37Z</time>
      </trkpt>
      <trkpt lat="43.63357" lon="3.70352">
        <ele>154.5</ele>
        <time>2021-11-13T14:06:47Z</time>
      </trkpt>
      <trkpt lat="43.63358" lon="3.70398">
        <ele>154.9</ele>
        <time>2021-11-13T14:06:57Z</time>
      </trkpt>
      <trkpt lat="43.63361" lon="3.70443">
        <ele>154.1</ele>
        <time>2021-11-13T14:07:07Z</time>
      </trkpt>
      <trkpt lat="43.63372" lon="3.70485">
        <ele>153.7</ele>
        <time>2021-11-13T14:07:17Z</time>
      </trkpt>
      <trkpt lat="43.63379" lon="3.70536">
        <ele>152.7</ele>
        <time>2021-11-13T14:07:27Z</time>
      </trkpt>
      <trkpt lat="43.6339" lon="3.70591">
        <ele>151</ele>
        <time>2021-11-13T14:07:37Z</time>
      </trkpt>
      <trkpt lat="43.6341" lon="3.70631">
        <ele>151.6</ele>
        <time>2021-11-13T14:07:47Z</time>
      </trkpt>
      <trkpt lat="43.63413" lon="3.70677">
        <ele>151.7</ele>
        <time>2021-11-13T14:09:17Z</time>
      </trkpt>
      <trkpt lat="43.63425" lon="3.70729">
        <ele>152.3</ele>
        <time>2021-11-13T14:09:37Z</time>
      </trkpt>
      <trkpt lat="43.63434" lon="3.70789">
        <ele>152.6</ele>
        <time>2021-11-13T14:09:47Z</time>
      </trkpt>
      <trkpt lat="43.63444" lon="3.70852">
        <ele>153</ele>
        <time>2021-11-13T14:09:57Z</time>
      </trkpt>
      <trkpt lat="43.63467" lon="3.70895">
        <ele>152.6</ele>
        <time>2021-11-13T14:10:07Z</time>
      </trkpt>
      <trkpt lat="43.63507" lon="3.70915">
        <ele>152.3</ele>
        <time>2021-11-13T14:10:17Z</time>
      </trkpt>
      <trkpt lat="43.63535" lon="3.70896">
        <ele>153.3</ele>
        <time>2021-11-13T14:10:27Z</time>
      </trkpt>
      <trkpt lat="43.63555" lon="3.70867">
        <ele>154.8</ele>
        <time>2021-11-13T14:10:37Z</time>
      </trkpt>
      <trkpt lat="43.63572" lon="3.70855">
        <ele>155.2</ele>
        <time>2021-11-13T14:10:47Z</time>
      </trkpt>
      <trkpt lat="43.63578" lon="3.70913">
        <ele>154</ele>
        <time>2021-11-13T14:10:57Z</time>
      </trkpt>
      <trkpt lat="43.63585" lon="3.70965">
        <ele>154</ele>
        <time>2021-11-13T14:11:07Z</time>
      </trkpt>
      <trkpt lat="43.63603" lon="3.71011">
        <ele>154.7</ele>
        <time>2021-11-13T14:11:17Z</time>
      </trkpt>
      <trkpt lat="43.63618" lon="3.71051">
        <ele>153.9</ele>
        <time>2021-11-13T14:11:27Z</time>
      </trkpt>
      <trkpt lat="43.63613" lon="3.71111">
        <ele>154</ele>
        <time>2021-11-13T14:11:37Z</time>
      </trkpt>
      <trkpt lat="43.63615" lon="3.7117">
        <ele>152.9</ele>
        <time>2021-11-13T14:11:47Z</time>
      </trkpt>
      <trkpt lat="43.63635" lon="3.71225">
        <ele>151.9</ele>
        <time>2021-11-13T14:11:57Z</time>
      </trkpt>
      <trkpt lat="43.63658" lon="3.71282">
        <ele>150.5</ele>
        <time>2021-11-13T14:12:07Z</time>
      </trkpt>
      <trkpt lat="43.63687" lon="3.71329">
        <ele>149</ele>
        <time>2021-11-13T14:12:17Z</time>
      </trkpt>
      <trkpt lat="43.63703" lon="3.71384">
        <ele>146.3</ele>
        <time>2021-11-13T14:12:27Z</time>
      </trkpt>
      <trkpt lat="43.63683" lon="3.71416">
        <ele>146</ele>
        <time>2021-11-13T14:12:37Z</time>
      </trkpt>
      <trkpt lat="43.63658" lon="3.71461">
        <ele>146.4</ele>
        <time>2021-11-13T14:12:47Z</time>
      </trkpt>
      <trkpt lat="43.63628" lon="3.71502">
        <ele>148.4</ele>
        <time>2021-11-13T14:12:57Z</time>
      </trkpt>
      <trkpt lat="43.63604" lon="3.71544">
        <ele>149.6</ele>
        <time>2021-11-13T14:13:07Z</time>
      </trkpt>
      <trkpt lat="43.63579" lon="3.71587">
        <ele>150.8</ele>
        <time>2021-11-13T14:13:17Z</time>
      </trkpt>
      <trkpt lat="43.63562" lon="3.71642">
        <ele>151.2</ele>
        <time>2021-11-13T14:13:27Z</time>
      </trkpt>
      <trkpt lat="43.63546" lon="3.71698">
        <ele>150.3</ele>
        <time>2021-11-13T14:13:37Z</time>
      </trkpt>
      <trkpt lat="43.63535" lon="3.7175">
        <ele>151.7</ele>
        <time>2021-11-13T14:13:47Z</time>
      </trkpt>
      <trkpt lat="43.63522" lon="3.71804">
        <ele>152.2</ele>
        <time>2021-11-13T14:13:57Z</time>
      </trkpt>
      <trkpt lat="43.63511" lon="3.71855">
        <ele>154</ele>
        <time>2021-11-13T14:14:07Z</time>
      </trkpt>
      <trkpt lat="43.6352" lon="3.71879">
        <ele>153.6</ele>
        <time>2021-11-13T14:14:17Z</time>
      </trkpt>
      <trkpt lat="43.63538" lon="3.71914">
        <ele>153.2</ele>
        <time>2021-11-13T14:14:27Z</time>
      </trkpt>
      <trkpt lat="43.63537" lon="3.71978">
        <ele>154.7</ele>
        <time>2021-11-13T14:14:37Z</time>
      </trkpt>
      <trkpt lat="43.63544" lon="3.72028">
        <ele>155.8</ele>
        <time>2021-11-13T14:14:47Z</time>
      </trkpt>
      <trkpt lat="43.63555" lon="3.72075">
        <ele>156.7</ele>
        <time>2021-11-13T14:14:57Z</time>
      </trkpt>
      <trkpt lat="43.63566" lon="3.7211">
        <ele>159.3</ele>
        <time>2021-11-13T14:15:07Z</time>
      </trkpt>
      <trkpt lat="43.63574" lon="3.72135">
        <ele>160</ele>
        <time>2021-11-13T14:15:17Z</time>
      </trkpt>
      <trkpt lat="43.63578" lon="3.7216">
        <ele>160.8</ele>
        <time>2021-11-13T14:15:27Z</time>
      </trkpt>
      <trkpt lat="43.63586" lon="3.72189">
        <ele>161.7</ele>
        <time>2021-11-13T14:15:37Z</time>
      </trkpt>
      <trkpt lat="43.63592" lon="3.72218">
        <ele>162.5</ele>
        <time>2021-11-13T14:15:47Z</time>
      </trkpt>
      <trkpt lat="43.63599" lon="3.72247">
        <ele>163.8</ele>
        <time>2021-11-13T14:15:57Z</time>
      </trkpt>
      <trkpt lat="43.63611" lon="3.72274">
        <ele>164.9</ele>
        <time>2021-11-13T14:16:07Z</time>
      </trkpt>
      <trkpt lat="43.63617" lon="3.72308">
        <ele>165.9</ele>
        <time>2021-11-13T14:16:17Z</time>
      </trkpt>
      <trkpt lat="43.63622" lon="3.72344">
        <ele>166.4</ele>
        <time>2021-11-13T14:16:27Z</time>
      </trkpt>
      <trkpt lat="43.6363" lon="3.72386">
        <ele>166.6</ele>
        <time>2021-11-13T14:16:37Z</time>
      </trkpt>
      <trkpt lat="43.63645" lon="3.72439">
        <ele>167.8</ele>
        <time>2021-11-13T14:16:47Z</time>
      </trkpt>
      <trkpt lat="43.63655" lon="3.72485">
        <ele>167.9</ele>
        <time>2021-11-13T14:16:57Z</time>
      </trkpt>
      <trkpt lat="43.63665" lon="3.72541">
        <ele>166.1</ele>
        <time>2021-11-13T14:17:07Z</time>
      </trkpt>
      <trkpt lat="43.63665" lon="3.726">
        <ele>166.1</ele>
        <time>2021-11-13T14:17:17Z</time>
      </trkpt>
      <trkpt lat="43.63663" lon="3.72656">
        <ele>166.1</ele>
        <time>2021-11-13T14:17:27Z</time>
      </trkpt>
      <trkpt lat="43.6366" lon="3.7271">
        <ele>165.1</ele>
        <time>2021-11-13T14:17:37Z</time>
      </trkpt>
      <trkpt lat="43.63662" lon="3.72787">
        <ele>165</ele>
        <time>2021-11-13T14:17:47Z</time>
      </trkpt>
      <trkpt lat="43.63659" lon="3.72845">
        <ele>164.3</ele>
        <time>2021-11-13T14:17:57Z</time>
      </trkpt>
      <trkpt lat="43.63654" lon="3.72899">
        <ele>165</ele>
        <time>2021-11-13T14:18:07Z</time>
      </trkpt>
      <trkpt lat="43.6365" lon="3.72948">
        <ele>164.8</ele>
        <time>2021-11-13T14:18:17Z</time>
      </trkpt>
      <trkpt lat="43.63645" lon="3.72994">
        <ele>166.1</ele>
        <time>2021-11-13T14:18:27Z</time>
      </trkpt>
      <trkpt lat="43.6364" lon="3.7304">
        <ele>166.8</ele>
        <time>2021-11-13T14:18:37Z</time>
      </trkpt>
      <trkpt lat="43.63638" lon="3.73089">
        <ele>168.1</ele>
        <time>2021-11-13T14:18:47Z</time>
      </trkpt>
      <trkpt lat="43.63631" lon="3.73122">
        <ele>169</ele>
        <time>2021-11-13T14:18:57Z</time>
      </trkpt>
      <trkpt lat="43.63633" lon="3.7316">
        <ele>168.4</ele>
        <time>2021-11-13T14:19:07Z</time>
      </trkpt>
      <trkpt lat="43.63629" lon="3.73233">
        <ele>166.8</ele>
        <time>2021-11-13T14:19:17Z</time>
      </trkpt>
      <trkpt lat="43.63629" lon="3.73283">
        <ele>169.4</ele>
        <time>2021-11-13T14:19:27Z</time>
      </trkpt>
      <trkpt lat="43.63639" lon="3.73357">
        <ele>166.5</ele>
        <time>2021-11-13T14:19:37Z</time>
      </trkpt>
      <trkpt lat="43.63648" lon="3.73394">
        <ele>168.8</ele>
        <time>2021-11-13T14:19:47Z</time>
      </trkpt>
      <trkpt lat="43.63648" lon="3.73436">
        <ele>169.8</ele>
        <time>2021-11-13T14:19:57Z</time>
      </trkpt>
      <trkpt lat="43.63652" lon="3.73476">
        <ele>171.2</ele>
        <time>2021-11-13T14:20:07Z</time>
      </trkpt>
      <trkpt lat="43.63655" lon="3.73515">
        <ele>171.9</ele>
        <time>2021-11-13T14:20:17Z</time>
      </trkpt>
      <trkpt lat="43.63662" lon="3.73574">
        <ele>170.2</ele>
        <time>2021-11-13T14:20:27Z</time>
      </trkpt>
      <trkpt lat="43.63674" lon="3.73637">
        <ele>172.2</ele>
        <time>2021-11-13T14:20:37Z</time>
      </trkpt>
      <trkpt lat="43.63689" lon="3.73701">
        <ele>167.6</ele>
        <time>2021-11-13T14:20:47Z</time>
      </trkpt>
      <trkpt lat="43.63697" lon="3.73769">
        <ele>165.6</ele>
        <time>2021-11-13T14:20:57Z</time>
      </trkpt>
      <trkpt lat="43.63704" lon="3.73843">
        <ele>163.9</ele>
        <time>2021-11-13T14:21:07Z</time>
      </trkpt>
      <trkpt lat="43.63704" lon="3.73905">
        <ele>164.6</ele>
        <time>2021-11-13T14:21:17Z</time>
      </trkpt>
      <trkpt lat="43.63705" lon="3.7396">
        <ele>164.1</ele>
        <time>2021-11-13T14:21:27Z</time>
      </trkpt>
      <trkpt lat="43.63713" lon="3.74026">
        <ele>163.6</ele>
        <time>2021-11-13T14:21:37Z</time>
      </trkpt>
      <trkpt lat="43.63712" lon="3.74097">
        <ele>159.7</ele>
        <time>2021-11-13T14:21:47Z</time>
      </trkpt>
      <trkpt lat="43.6371" lon="3.74144">
        <ele>163.4</ele>
        <time>2021-11-13T14:21:57Z</time>
      </trkpt>
      <trkpt lat="43.63712" lon="3.74175">
        <ele>163.8</ele>
        <time>2021-11-13T14:22:07Z</time>
      </trkpt>
      <trkpt lat="43.6373" lon="3.74229">
        <ele>163.3</ele>
        <time>2021-11-13T14:22:17Z</time>
      </trkpt>
      <trkpt lat="43.63736" lon="3.74265">
        <ele>165.1</ele>
        <time>2021-11-13T14:22:27Z</time>
      </trkpt>
      <trkpt lat="43.63747" lon="3.74337">
        <ele>162.1</ele>
        <time>2021-11-13T14:22:37Z</time>
      </trkpt>
      <trkpt lat="43.63755" lon="3.74375">
        <ele>164.5</ele>
        <time>2021-11-13T14:22:47Z</time>
      </trkpt>
      <trkpt lat="43.63779" lon="3.74397">
        <ele>161.9</ele>
        <time>2021-11-13T14:22:57Z</time>
      </trkpt>
      <trkpt lat="43.63837" lon="3.74394">
        <ele>158.7</ele>
        <time>2021-11-13T14:23:07Z</time>
      </trkpt>
      <trkpt lat="43.63891" lon="3.74369">
        <ele>156</ele>
        <time>2021-11-13T14:23:17Z</time>
      </trkpt>
      <trkpt lat="43.63905" lon="3.74426">
        <ele>155.2</ele>
        <time>2021-11-13T14:23:27Z</time>
      </trkpt>
      <trkpt lat="43.6391" lon="3.74509">
        <ele>154.1</ele>
        <time>2021-11-13T14:23:37Z</time>
      </trkpt>
      <trkpt lat="43.63929" lon="3.74591">
        <ele>153.7</ele>
        <time>2021-11-13T14:23:47Z</time>
      </trkpt>
      <trkpt lat="43.63942" lon="3.74672">
        <ele>153.2</ele>
        <time>2021-11-13T14:23:57Z</time>
      </trkpt>
      <trkpt lat="43.63952" lon="3.74747">
        <ele>153.2</ele>
        <time>2021-11-13T14:24:07Z</time>
      </trkpt>
      <trkpt lat="43.63961" lon="3.74806">
        <ele>153.8</ele>
        <time>2021-11-13T14:24:17Z</time>
      </trkpt>
      <trkpt lat="43.6397" lon="3.74849">
        <ele>153.2</ele>
        <time>2021-11-13T14:24:27Z</time>
      </trkpt>
      <trkpt lat="43.63972" lon="3.74894">
        <ele>154</ele>
        <time>2021-11-13T14:24:37Z</time>
      </trkpt>
      <trkpt lat="43.64001" lon="3.74936">
        <ele>151.9</ele>
        <time>2021-11-13T14:24:47Z</time>
      </trkpt>
      <trkpt lat="43.64028" lon="3.74986">
        <ele>151.5</ele>
        <time>2021-11-13T14:24:57Z</time>
      </trkpt>
      <trkpt lat="43.64069" lon="3.75021">
        <ele>148.5</ele>
        <time>2021-11-13T14:25:07Z</time>
      </trkpt>
      <trkpt lat="43.64099" lon="3.75085">
        <ele>145.8</ele>
        <time>2021-11-13T14:25:17Z</time>
      </trkpt>
      <trkpt lat="43.64132" lon="3.75158">
        <ele>144.5</ele>
        <time>2021-11-13T14:25:27Z</time>
      </trkpt>
      <trkpt lat="43.64173" lon="3.75231">
        <ele>142.7</ele>
        <time>2021-11-13T14:25:37Z</time>
      </trkpt>
      <trkpt lat="43.64212" lon="3.75301">
        <ele>139.8</ele>
        <time>2021-11-13T14:25:47Z</time>
      </trkpt>
      <trkpt lat="43.64238" lon="3.75387">
        <ele>138.4</ele>
        <time>2021-11-13T14:25:57Z</time>
      </trkpt>
      <trkpt lat="43.64251" lon="3.75464">
        <ele>137.1</ele>
        <time>2021-11-13T14:26:07Z</time>
      </trkpt>
      <trkpt lat="43.64272" lon="3.75535">
        <ele>137.2</ele>
        <time>2021-11-13T14:26:17Z</time>
      </trkpt>
      <trkpt lat="43.64297" lon="3.75605">
        <ele>136.2</ele>
        <time>2021-11-13T14:26:27Z</time>
      </trkpt>
      <trkpt lat="43.64317" lon="3.75676">
        <ele>135.4</ele>
        <time>2021-11-13T14:26:37Z</time>
      </trkpt>
      <trkpt lat="43.64333" lon="3.75733">
        <ele>135</ele>
        <time>2021-11-13T14:26:47Z</time>
      </trkpt>
      <trkpt lat="43.64339" lon="3.75763">
        <ele>135.4</ele>
        <time>2021-11-13T14:26:57Z</time>
      </trkpt>
      <trkpt lat="43.64333" lon="3.75767">
        <ele>135</ele>
        <time>2021-11-13T14:27:07Z</time>
      </trkpt>
      <trkpt lat="43.64325" lon="3.75778">
        <ele>134.7</ele>
        <time>2021-11-13T14:27:17Z</time>
      </trkpt>
      <trkpt lat="43.6433" lon="3.7581">
        <ele>135.9</ele>
        <time>2021-11-13T14:27:27Z</time>
      </trkpt>
      <trkpt lat="43.64339" lon="3.7586">
        <ele>136.4</ele>
        <time>2021-11-13T14:27:47Z</time>
      </trkpt>
      <trkpt lat="43.64352" lon="3.75915">
        <ele>137.3</ele>
        <time>2021-11-13T14:27:57Z</time>
      </trkpt>
      <trkpt lat="43.64367" lon="3.75978">
        <ele>138.4</ele>
        <time>2021-11-13T14:28:07Z</time>
      </trkpt>
      <trkpt lat="43.64379" lon="3.76044">
        <ele>139.4</ele>
        <time>2021-11-13T14:28:17Z</time>
      </trkpt>
      <trkpt lat="43.64391" lon="3.76107">
        <ele>138</ele>
        <time>2021-11-13T14:28:27Z</time>
      </trkpt>
      <trkpt lat="43.6441" lon="3.76169">
        <ele>138.2</ele>
        <time>2021-11-13T14:28:37Z</time>
      </trkpt>
      <trkpt lat="43.64429" lon="3.7624">
        <ele>136.4</ele>
        <time>2021-11-13T14:28:47Z</time>
      </trkpt>
      <trkpt lat="43.64447" lon="3.76319">
        <ele>135.2</ele>
        <time>2021-11-13T14:28:57Z</time>
      </trkpt>
      <trkpt lat="43.64467" lon="3.76398">
        <ele>133.8</ele>
        <time>2021-11-13T14:29:07Z</time>
      </trkpt>
      <trkpt lat="43.64479" lon="3.76483">
        <ele>133.6</ele>
        <time>2021-11-13T14:29:17Z</time>
      </trkpt>
      <trkpt lat="43.64487" lon="3.76567">
        <ele>133.1</ele>
        <time>2021-11-13T14:29:27Z</time>
      </trkpt>
      <trkpt lat="43.64505" lon="3.76636">
        <ele>134.2</ele>
        <time>2021-11-13T14:29:37Z</time>
      </trkpt>
      <trkpt lat="43.64536" lon="3.76682">
        <ele>136</ele>
        <time>2021-11-13T14:29:47Z</time>
      </trkpt>
      <trkpt lat="43.64566" lon="3.76731">
        <ele>135.2</ele>
        <time>2021-11-13T14:29:57Z</time>
      </trkpt>
      <trkpt lat="43.64611" lon="3.76789">
        <ele>132.6</ele>
        <time>2021-11-13T14:30:07Z</time>
      </trkpt>
      <trkpt lat="43.64655" lon="3.7683">
        <ele>133.2</ele>
        <time>2021-11-13T14:30:17Z</time>
      </trkpt>
      <trkpt lat="43.64656" lon="3.76905">
        <ele>133</ele>
        <time>2021-11-13T14:30:27Z</time>
      </trkpt>
      <trkpt lat="43.64655" lon="3.76986">
        <ele>132.7</ele>
        <time>2021-11-13T14:30:37Z</time>
      </trkpt>
      <trkpt lat="43.64647" lon="3.77067">
        <ele>132.5</ele>
        <time>2021-11-13T14:30:47Z</time>
      </trkpt>
      <trkpt lat="43.64632" lon="3.77127">
        <ele>131.2</ele>
        <time>2021-11-13T14:30:57Z</time>
      </trkpt>
      <trkpt lat="43.64617" lon="3.77185">
        <ele>128.9</ele>
        <time>2021-11-13T14:31:07Z</time>
      </trkpt>
      <trkpt lat="43.64628" lon="3.77256">
        <ele>128.4</ele>
        <time>2021-11-13T14:31:17Z</time>
      </trkpt>
      <trkpt lat="43.64629" lon="3.77309">
        <ele>127</ele>
        <time>2021-11-13T14:31:27Z</time>
      </trkpt>
      <trkpt lat="43.64631" lon="3.77361">
        <ele>125.9</ele>
        <time>2021-11-13T14:31:37Z</time>
      </trkpt>
      <trkpt lat="43.64629" lon="3.77414">
        <ele>125.2</ele>
        <time>2021-11-13T14:31:47Z</time>
      </trkpt>
      <trkpt lat="43.64615" lon="3.77473">
        <ele>123.6</ele>
        <time>2021-11-13T14:31:57Z</time>
      </trkpt>
      <trkpt lat="43.646" lon="3.77548">
        <ele>121.1</ele>
        <time>2021-11-13T14:32:07Z</time>
      </trkpt>
      <trkpt lat="43.64617" lon="3.77613">
        <ele>120.9</ele>
        <time>2021-11-13T14:32:17Z</time>
      </trkpt>
      <trkpt lat="43.64649" lon="3.77632">
        <ele>121.7</ele>
        <time>2021-11-13T14:32:27Z</time>
      </trkpt>
      <trkpt lat="43.64684" lon="3.77661">
        <ele>120.7</ele>
        <time>2021-11-13T14:32:37Z</time>
      </trkpt>
      <trkpt lat="43.64708" lon="3.777">
        <ele>118.1</ele>
        <time>2021-11-13T14:32:47Z</time>
      </trkpt>
      <trkpt lat="43.64753" lon="3.77739">
        <ele>113.7</ele>
        <time>2021-11-13T14:32:57Z</time>
      </trkpt>
      <trkpt lat="43.64806" lon="3.7775">
        <ele>109</ele>
        <time>2021-11-13T14:33:07Z</time>
      </trkpt>
      <trkpt lat="43.64838" lon="3.77789">
        <ele>113.6</ele>
        <time>2021-11-13T14:33:17Z</time>
      </trkpt>
      <trkpt lat="43.64845" lon="3.77807">
        <ele>115.4</ele>
        <time>2021-11-13T14:33:27Z</time>
      </trkpt>
      <trkpt lat="43.64854" lon="3.77846">
        <ele>108.7</ele>
        <time>2021-11-13T14:34:07Z</time>
      </trkpt>
      <trkpt lat="43.64879" lon="3.77915">
        <ele>101.8</ele>
        <time>2021-11-13T14:34:27Z</time>
      </trkpt>
      <trkpt lat="43.64901" lon="3.78007">
        <ele>96.5</ele>
        <time>2021-11-13T14:34:37Z</time>
      </trkpt>
      <trkpt lat="43.64924" lon="3.78093">
        <ele>96.8</ele>
        <time>2021-11-13T14:34:47Z</time>
      </trkpt>
      <trkpt lat="43.64949" lon="3.78167">
        <ele>95.6</ele>
        <time>2021-11-13T14:34:57Z</time>
      </trkpt>
      <trkpt lat="43.64992" lon="3.78256">
        <ele>88</ele>
        <time>2021-11-13T14:35:07Z</time>
      </trkpt>
      <trkpt lat="43.65026" lon="3.78312">
        <ele>83.9</ele>
        <time>2021-11-13T14:35:17Z</time>
      </trkpt>
      <trkpt lat="43.65059" lon="3.78369">
        <ele>80.6</ele>
        <time>2021-11-13T14:35:27Z</time>
      </trkpt>
      <trkpt lat="43.65094" lon="3.78447">
        <ele>76.6</ele>
        <time>2021-11-13T14:35:37Z</time>
      </trkpt>
      <trkpt lat="43.65122" lon="3.78479">
        <ele>74.5</ele>
        <time>2021-11-13T14:35:47Z</time>
      </trkpt>
      <trkpt lat="43.6513" lon="3.78544">
        <ele>73.2</ele>
        <time>2021-11-13T14:35:57Z</time>
      </trkpt>
      <trkpt lat="43.65133" lon="3.78617">
        <ele>75.6</ele>
        <time>2021-11-13T14:36:07Z</time>
      </trkpt>
      <trkpt lat="43.65132" lon="3.78683">
        <ele>72.8</ele>
        <time>2021-11-13T14:36:17Z</time>
      </trkpt>
      <trkpt lat="43.65137" lon="3.78765">
        <ele>66.2</ele>
        <time>2021-11-13T14:36:27Z</time>
      </trkpt>
      <trkpt lat="43.65144" lon="3.78809">
        <ele>62.6</ele>
        <time>2021-11-13T14:36:37Z</time>
      </trkpt>
      <trkpt lat="43.65148" lon="3.7885">
        <ele>59.3</ele>
        <time>2021-11-13T14:36:47Z</time>
      </trkpt>
      <trkpt lat="43.65112" lon="3.78885">
        <ele>58.2</ele>
        <time>2021-11-13T14:36:57Z</time>
      </trkpt>
      <trkpt lat="43.65079" lon="3.78935">
        <ele>56.9</ele>
        <time>2021-11-13T14:37:07Z</time>
      </trkpt>
      <trkpt lat="43.6506" lon="3.78923">
        <ele>58.6</ele>
        <time>2021-11-13T14:37:17Z</time>
      </trkpt>
      <trkpt lat="43.6507" lon="3.789">
        <ele>59.7</ele>
        <time>2021-11-13T14:37:27Z</time>
      </trkpt>
      <trkpt lat="43.6508" lon="3.78934">
        <ele>56.9</ele>
        <time>2021-11-13T14:37:37Z</time>
      </trkpt>
      <trkpt lat="43.65093" lon="3.78975">
        <ele>58.4</ele>
        <time>2021-11-13T14:37:47Z</time>
      </trkpt>
      <trkpt lat="43.65091" lon="3.79032">
        <ele>60</ele>
        <time>2021-11-13T14:37:57Z</time>
      </trkpt>
      <trkpt lat="43.65068" lon="3.79073">
        <ele>62.5</ele>
        <time>2021-11-13T14:38:07Z</time>
      </trkpt>
      <trkpt lat="43.65047" lon="3.79114">
        <ele>63.8</ele>
        <time>2021-11-13T14:38:17Z</time>
      </trkpt>
      <trkpt lat="43.6503" lon="3.79155">
        <ele>63.4</ele>
        <time>2021-11-13T14:38:27Z</time>
      </trkpt>
      <trkpt lat="43.65004" lon="3.79192">
        <ele>63.9</ele>
        <time>2021-11-13T14:38:37Z</time>
      </trkpt>
      <trkpt lat="43.64986" lon="3.79238">
        <ele>64.2</ele>
        <time>2021-11-13T14:38:47Z</time>
      </trkpt>
      <trkpt lat="43.64975" lon="3.79294">
        <ele>63.2</ele>
        <time>2021-11-13T14:38:57Z</time>
      </trkpt>
      <trkpt lat="43.64965" lon="3.79347">
        <ele>62.7</ele>
        <time>2021-11-13T14:39:07Z</time>
      </trkpt>
      <trkpt lat="43.64958" lon="3.79388">
        <ele>62.9</ele>
        <time>2021-11-13T14:39:17Z</time>
      </trkpt>
      <trkpt lat="43.64941" lon="3.7943">
        <ele>62.7</ele>
        <time>2021-11-13T14:39:27Z</time>
      </trkpt>
      <trkpt lat="43.64922" lon="3.79478">
        <ele>62.5</ele>
        <time>2021-11-13T14:39:37Z</time>
      </trkpt>
      <trkpt lat="43.649" lon="3.79527">
        <ele>63.1</ele>
        <time>2021-11-13T14:39:47Z</time>
      </trkpt>
      <trkpt lat="43.64877" lon="3.7957">
        <ele>63.4</ele>
        <time>2021-11-13T14:39:57Z</time>
      </trkpt>
      <trkpt lat="43.64861" lon="3.79605">
        <ele>63</ele>
        <time>2021-11-13T14:40:07Z</time>
      </trkpt>
      <trkpt lat="43.64874" lon="3.79626">
        <ele>64.2</ele>
        <time>2021-11-13T14:40:17Z</time>
      </trkpt>
      <trkpt lat="43.64859" lon="3.79659">
        <ele>63.9</ele>
        <time>2021-11-13T14:40:27Z</time>
      </trkpt>
      <trkpt lat="43.64865" lon="3.79671">
        <ele>64.4</ele>
        <time>2021-11-13T14:40:47Z</time>
      </trkpt>
      <trkpt lat="43.64848" lon="3.79694">
        <ele>64.5</ele>
        <time>2021-11-13T14:44:17Z</time>
      </trkpt>
      <trkpt lat="43.64833" lon="3.79723">
        <ele>64</ele>
        <time>2021-11-13T14:44:37Z</time>
      </trkpt>
      <trkpt lat="43.64817" lon="3.79719">
        <ele>63.4</ele>
        <time>2021-11-13T14:44:47Z</time>
      </trkpt>
      <trkpt lat="43.64796" lon="3.79738">
        <ele>62.7</ele>
        <time>2021-11-13T14:44:57Z</time>
      </trkpt>
      <trkpt lat="43.64774" lon="3.79779">
        <ele>61.9</ele>
        <time>2021-11-13T14:45:07Z</time>
      </trkpt>
      <trkpt lat="43.64763" lon="3.7982">
        <ele>62</ele>
        <time>2021-11-13T14:45:27Z</time>
      </trkpt>
      <trkpt lat="43.64759" lon="3.79869">
        <ele>62.3</ele>
        <time>2021-11-13T14:45:37Z</time>
      </trkpt>
      <trkpt lat="43.64757" lon="3.79926">
        <ele>62.6</ele>
        <time>2021-11-13T14:45:47Z</time>
      </trkpt>
      <trkpt lat="43.64755" lon="3.79982">
        <ele>63.2</ele>
        <time>2021-11-13T14:45:57Z</time>
      </trkpt>
      <trkpt lat="43.6474" lon="3.80037">
        <ele>64</ele>
        <time>2021-11-13T14:46:07Z</time>
      </trkpt>
      <trkpt lat="43.64719" lon="3.80091">
        <ele>63</ele>
        <time>2021-11-13T14:46:17Z</time>
      </trkpt>
      <trkpt lat="43.64697" lon="3.8015">
        <ele>61.1</ele>
        <time>2021-11-13T14:46:27Z</time>
      </trkpt>
      <trkpt lat="43.64682" lon="3.80216">
        <ele>60.6</ele>
        <time>2021-11-13T14:46:37Z</time>
      </trkpt>
      <trkpt lat="43.64673" lon="3.80282">
        <ele>60.2</ele>
        <time>2021-11-13T14:46:47Z</time>
      </trkpt>
      <trkpt lat="43.64668" lon="3.80347">
        <ele>60</ele>
        <time>2021-11-13T14:46:57Z</time>
      </trkpt>
      <trkpt lat="43.64662" lon="3.80414">
        <ele>59.8</ele>
        <time>2021-11-13T14:47:07Z</time>
      </trkpt>
      <trkpt lat="43.64666" lon="3.80479">
        <ele>60</ele>
        <time>2021-11-13T14:47:17Z</time>
      </trkpt>
      <trkpt lat="43.64673" lon="3.80544">
        <ele>60.2</ele>
        <time>2021-11-13T14:47:27Z</time>
      </trkpt>
      <trkpt lat="43.64677" lon="3.80604">
        <ele>61</ele>
        <time>2021-11-13T14:47:37Z</time>
      </trkpt>
      <trkpt lat="43.64678" lon="3.80662">
        <ele>61.4</ele>
        <time>2021-11-13T14:47:47Z</time>
      </trkpt>
      <trkpt lat="43.64668" lon="3.80721">
        <ele>61</ele>
        <time>2021-11-13T14:47:57Z</time>
      </trkpt>
      <trkpt lat="43.64655" lon="3.8078">
        <ele>61.7</ele>
        <time>2021-11-13T14:48:07Z</time>
      </trkpt>
      <trkpt lat="43.64636" lon="3.80836">
        <ele>61.9</ele>
        <time>2021-11-13T14:48:17Z</time>
      </trkpt>
      <trkpt lat="43.64623" lon="3.80893">
        <ele>61.4</ele>
        <time>2021-11-13T14:48:27Z</time>
      </trkpt>
      <trkpt lat="43.64612" lon="3.80944">
        <ele>62.8</ele>
        <time>2021-11-13T14:48:37Z</time>
      </trkpt>
      <trkpt lat="43.64598" lon="3.81">
        <ele>62.5</ele>
        <time>2021-11-13T14:48:47Z</time>
      </trkpt>
      <trkpt lat="43.64588" lon="3.81048">
        <ele>63.6</ele>
        <time>2021-11-13T14:48:57Z</time>
      </trkpt>
      <trkpt lat="43.6459" lon="3.81101">
        <ele>63.8</ele>
        <time>2021-11-13T14:49:07Z</time>
      </trkpt>
      <trkpt lat="43.64584" lon="3.81157">
        <ele>64</ele>
        <time>2021-11-13T14:49:17Z</time>
      </trkpt>
      <trkpt lat="43.64586" lon="3.81201">
        <ele>64.9</ele>
        <time>2021-11-13T14:49:27Z</time>
      </trkpt>
      <trkpt lat="43.64587" lon="3.81246">
        <ele>65</ele>
        <time>2021-11-13T14:49:37Z</time>
      </trkpt>
      <trkpt lat="43.64586" lon="3.81293">
        <ele>67.4</ele>
        <time>2021-11-13T14:49:47Z</time>
      </trkpt>
      <trkpt lat="43.64589" lon="3.81341">
        <ele>68.3</ele>
        <time>2021-11-13T14:49:57Z</time>
      </trkpt>
      <trkpt lat="43.64591" lon="3.81387">
        <ele>69.7</ele>
        <time>2021-11-13T14:50:07Z</time>
      </trkpt>
      <trkpt lat="43.64592" lon="3.81432">
        <ele>71.2</ele>
        <time>2021-11-13T14:50:17Z</time>
      </trkpt>
      <trkpt lat="43.64589" lon="3.81474">
        <ele>71.6</ele>
        <time>2021-11-13T14:50:27Z</time>
      </trkpt>
      <trkpt lat="43.6458" lon="3.81513">
        <ele>72.8</ele>
        <time>2021-11-13T14:50:37Z</time>
      </trkpt>
      <trkpt lat="43.64595" lon="3.81551">
        <ele>73.5</ele>
        <time>2021-11-13T14:50:47Z</time>
      </trkpt>
      <trkpt lat="43.64597" lon="3.81594">
        <ele>74.4</ele>
        <time>2021-11-13T14:50:57Z</time>
      </trkpt>
      <trkpt lat="43.64598" lon="3.81635">
        <ele>75.3</ele>
        <time>2021-11-13T14:51:07Z</time>
      </trkpt>
      <trkpt lat="43.64599" lon="3.81674">
        <ele>76.8</ele>
        <time>2021-11-13T14:51:17Z</time>
      </trkpt>
      <trkpt lat="43.646" lon="3.81707">
        <ele>78.6</ele>
        <time>2021-11-13T14:51:27Z</time>
      </trkpt>
      <trkpt lat="43.64601" lon="3.81735">
        <ele>79.8</ele>
        <time>2021-11-13T14:51:37Z</time>
      </trkpt>
      <trkpt lat="43.64603" lon="3.81763">
        <ele>80.6</ele>
        <time>2021-11-13T14:51:47Z</time>
      </trkpt>
      <trkpt lat="43.64603" lon="3.81792">
        <ele>81.7</ele>
        <time>2021-11-13T14:51:57Z</time>
      </trkpt>
      <trkpt lat="43.64605" lon="3.81831">
        <ele>82.8</ele>
        <time>2021-11-13T14:52:07Z</time>
      </trkpt>
      <trkpt lat="43.64606" lon="3.81877">
        <ele>84.1</ele>
        <time>2021-11-13T14:52:17Z</time>
      </trkpt>
      <trkpt lat="43.64605" lon="3.81917">
        <ele>86.4</ele>
        <time>2021-11-13T14:52:27Z</time>
      </trkpt>
      <trkpt lat="43.64607" lon="3.81956">
        <ele>87.1</ele>
        <time>2021-11-13T14:52:37Z</time>
      </trkpt>
      <trkpt lat="43.64607" lon="3.81996">
        <ele>88.1</ele>
        <time>2021-11-13T14:52:47Z</time>
      </trkpt>
      <trkpt lat="43.64604" lon="3.82035">
        <ele>88.1</ele>
        <time>2021-11-13T14:52:57Z</time>
      </trkpt>
      <trkpt lat="43.64597" lon="3.82072">
        <ele>88.1</ele>
        <time>2021-11-13T14:53:07Z</time>
      </trkpt>
      <trkpt lat="43.64588" lon="3.82108">
        <ele>90.2</ele>
        <time>2021-11-13T14:53:17Z</time>
      </trkpt>
      <trkpt lat="43.64576" lon="3.82142">
        <ele>93.6</ele>
        <time>2021-11-13T14:53:27Z</time>
      </trkpt>
      <trkpt lat="43.6456" lon="3.82173">
        <ele>95.4</ele>
        <time>2021-11-13T14:53:37Z</time>
      </trkpt>
      <trkpt lat="43.64541" lon="3.82201">
        <ele>96.2</ele>
        <time>2021-11-13T14:53:47Z</time>
      </trkpt>
      <trkpt lat="43.64521" lon="3.82225">
        <ele>96.5</ele>
        <time>2021-11-13T14:53:57Z</time>
      </trkpt>
      <trkpt lat="43.64498" lon="3.82247">
        <ele>97.2</ele>
        <time>2021-11-13T14:54:07Z</time>
      </trkpt>
      <trkpt lat="43.64472" lon="3.82269">
        <ele>98</ele>
        <time>2021-11-13T14:54:17Z</time>
      </trkpt>
      <trkpt lat="43.64442" lon="3.82263">
        <ele>98.1</ele>
        <time>2021-11-13T14:54:27Z</time>
      </trkpt>
      <trkpt lat="43.64412" lon="3.82237">
        <ele>98</ele>
        <time>2021-11-13T14:54:37Z</time>
      </trkpt>
      <trkpt lat="43.64378" lon="3.8226">
        <ele>98</ele>
        <time>2021-11-13T14:54:47Z</time>
      </trkpt>
      <trkpt lat="43.6435" lon="3.82276">
        <ele>98.4</ele>
        <time>2021-11-13T14:54:57Z</time>
      </trkpt>
      <trkpt lat="43.64319" lon="3.82296">
        <ele>98.5</ele>
        <time>2021-11-13T14:55:07Z</time>
      </trkpt>
      <trkpt lat="43.64286" lon="3.82309">
        <ele>98.6</ele>
        <time>2021-11-13T14:55:17Z</time>
      </trkpt>
      <trkpt lat="43.64254" lon="3.82303">
        <ele>100.1</ele>
        <time>2021-11-13T14:55:27Z</time>
      </trkpt>
      <trkpt lat="43.6423" lon="3.82302">
        <ele>101.6</ele>
        <time>2021-11-13T14:55:37Z</time>
      </trkpt>
      <trkpt lat="43.64204" lon="3.8231">
        <ele>102</ele>
        <time>2021-11-13T14:55:47Z</time>
      </trkpt>
      <trkpt lat="43.64186" lon="3.82337">
        <ele>102.7</ele>
        <time>2021-11-13T14:55:57Z</time>
      </trkpt>
      <trkpt lat="43.64175" lon="3.82371">
        <ele>102.6</ele>
        <time>2021-11-13T14:56:07Z</time>
      </trkpt>
      <trkpt lat="43.64159" lon="3.82398">
        <ele>101.2</ele>
        <time>2021-11-13T14:56:17Z</time>
      </trkpt>
      <trkpt lat="43.64151" lon="3.82431">
        <ele>99.9</ele>
        <time>2021-11-13T14:56:27Z</time>
      </trkpt>
      <trkpt lat="43.64143" lon="3.82462">
        <ele>99.1</ele>
        <time>2021-11-13T14:56:37Z</time>
      </trkpt>
      <trkpt lat="43.64124" lon="3.82507">
        <ele>96.7</ele>
        <time>2021-11-13T14:56:47Z</time>
      </trkpt>
      <trkpt lat="43.64106" lon="3.82552">
        <ele>94.9</ele>
        <time>2021-11-13T14:56:57Z</time>
      </trkpt>
      <trkpt lat="43.64085" lon="3.82608">
        <ele>93.1</ele>
        <time>2021-11-13T14:57:07Z</time>
      </trkpt>
      <trkpt lat="43.6406" lon="3.82678">
        <ele>88.7</ele>
        <time>2021-11-13T14:57:17Z</time>
      </trkpt>
      <trkpt lat="43.64027" lon="3.82758">
        <ele>84.4</ele>
        <time>2021-11-13T14:57:27Z</time>
      </trkpt>
      <trkpt lat="43.6401" lon="3.82797">
        <ele>82.1</ele>
        <time>2021-11-13T14:57:37Z</time>
      </trkpt>
      <trkpt lat="43.64017" lon="3.82825">
        <ele>80.8</ele>
        <time>2021-11-13T14:57:57Z</time>
      </trkpt>
      <trkpt lat="43.64023" lon="3.82868">
        <ele>78.2</ele>
        <time>2021-11-13T14:58:07Z</time>
      </trkpt>
      <trkpt lat="43.64003" lon="3.82857">
        <ele>79.2</ele>
        <time>2021-11-13T14:58:17Z</time>
      </trkpt>
      <trkpt lat="43.63982" lon="3.82837">
        <ele>80.3</ele>
        <time>2021-11-13T14:58:27Z</time>
      </trkpt>
      <trkpt lat="43.6398" lon="3.82847">
        <ele>80</ele>
        <time>2021-11-13T14:58:37Z</time>
      </trkpt>
      <trkpt lat="43.63733" lon="3.83093">
        <ele>73.3</ele>
      </trkpt>
      <trkpt lat="43.63682" lon="3.83056">
        <ele>70.6</ele>
      </trkpt>
      <trkpt lat="43.63642" lon="3.83127">
        <ele>70.7</ele>
      </trkpt>
      <trkpt lat="43.63429" lon="3.83352">
        <ele>68</ele>
      </trkpt>
      <trkpt lat="43.63351" lon="3.83527">
        <ele>63.6</ele>
      </trkpt>
      <trkpt lat="43.63304" lon="3.83515">
        <ele>62.5</ele>
      </trkpt>
      <trkpt lat="43.63213" lon="3.83744">
        <ele>60.4</ele>
      </trkpt>
      <trkpt lat="43.63153" lon="3.83795">
        <ele>60.8</ele>
      </trkpt>
      <trkpt lat="43.63045" lon="3.83935">
        <ele>59.7</ele>
      </trkpt>
      <trkpt lat="43.62854" lon="3.84015">
        <ele>59.6</ele>
      </trkpt>
      <trkpt lat="43.62783" lon="3.84006">
        <ele>59.4</ele>
      </trkpt>
      <trkpt lat="43.62695" lon="3.83864">
        <ele>63.9</ele>
      </trkpt>
      <trkpt lat="43.62576" lon="3.8368">
        <ele>71.5</ele>
      </trkpt>
      <trkpt lat="43.62567" lon="3.83594">
        <ele>73.2</ele>
      </trkpt>
      <trkpt lat="43.62508" lon="3.83507">
        <ele>73.4</ele>
      </trkpt>
      <trkpt lat="43.62496" lon="3.83471">
        <ele>74.4</ele>
      </trkpt>
      <trkpt lat="43.62508" lon="3.83416">
        <ele>74.9</ele>
      </trkpt>
      <trkpt lat="43.6249" lon="3.83428">
        <ele>74.1</ele>
      </trkpt>
      <trkpt lat="43.62445" lon="3.83404">
        <ele>74.5</ele>
      </trkpt>
      <trkpt lat="43.62417" lon="3.83459">
        <ele>73.5</ele>
      </trkpt>
      <trkpt lat="43.62355" lon="3.83434">
        <ele>74.8</ele>
      </trkpt>
      <trkpt lat="43.62291" lon="3.83483">
        <ele>75.6</ele>
      </trkpt>
      <trkpt lat="43.62283" lon="3.83512">
        <ele>76.5</ele>
      </trkpt>
    </trkseg>
  </trk>
</gpx>